Time,TemperatureF,DewpointF,PressureIn,WindDirection,WindDirectionDegrees,WindSpeedMPH,WindSpeedGustMPH,Humidity,HourlyPrecipIn,Conditions,Clouds,dailyrainin,SoftwareType,DateUTC
2013-03-06 00:00:00,33.8,32.3,29.64,South,173,0.0,2.0,94,0.00,,,0.66,Wunderground v.1.15,2013-03-06 05:00:00,
2013-03-06 00:01:00,33.8,32.3,29.63,South,173,1.0,2.0,94,0.00,,,0.66,Wunderground v.1.15,2013-03-06 05:01:00,
2013-03-06 00:02:00,33.8,32.3,29.63,South,173,0.0,2.0,94,0.00,,,0.66,Wunderground v.1.15,2013-03-06 05:02:00,
2013-03-06 00:06:00,33.8,32.3,29.63,SSW,198,1.0,2.0,94,0.00,,,0.66,Wunderground v.1.15,2013-03-06 05:06:00,
2013-03-06 00:07:00,33.8,32.3,29.63,SSE,165,0.0,2.0,94,0.00,,,0.66,Wunderground v.1.15,2013-03-06 05:07:00,
2013-03-06 00:08:00,33.8,32.3,29.63,SSW,198,1.0,2.0,94,0.00,,,0.66,Wunderground v.1.15,2013-03-06 05:08:00,
2013-03-06 00:10:00,33.8,32.3,29.63,WSW,244,0.0,1.0,94,0.00,,,0.66,Wunderground v.1.15,2013-03-06 05:10:00,
2013-03-06 00:11:00,33.8,32.3,29.63,WSW,244,0.0,1.0,94,0.00,,,0.66,Wunderground v.1.15,2013-03-06 05:11:00,
2013-03-06 00:13:00,33.8,32.3,29.63,South,185,2.0,2.0,94,0.00,,,0.66,Wunderground v.1.15,2013-03-06 05:13:00,
2013-03-06 00:16:00,33.8,32.3,29.63,SW,215,3.0,3.0,94,0.00,,,0.66,Wunderground v.1.15,2013-03-06 05:16:00,
2013-03-06 00:18:00,33.8,32.3,29.63,SE,132,4.0,4.0,94,0.00,,,0.66,Wunderground v.1.15,2013-03-06 05:18:00,
2013-03-06 00:21:00,33.7,32.2,29.62,SSW,195,2.0,3.0,94,0.00,,,0.66,Wunderground v.1.15,2013-03-06 05:21:00,
2013-03-06 00:23:00,33.7,32.2,29.62,West,279,2.0,4.0,94,0.00,,,0.66,Wunderground v.1.15,2013-03-06 05:23:00,
2013-03-06 00:24:00,33.7,32.2,29.62,WSW,250,2.0,4.0,94,0.00,,,0.66,Wunderground v.1.15,2013-03-06 05:24:00,
2013-03-06 00:27:00,33.8,32.3,29.62,SW,229,3.0,4.0,94,0.00,,,0.67,Wunderground v.1.15,2013-03-06 05:27:00,
2013-03-06 00:28:00,33.9,32.4,29.62,SW,229,1.0,4.0,94,0.00,,,0.67,Wunderground v.1.15,2013-03-06 05:28:00,
2013-03-06 00:31:00,34.0,32.5,29.62,WNW,294,3.0,3.0,94,0.00,,,0.67,Wunderground v.1.15,2013-03-06 05:31:00,
2013-03-06 00:32:00,34.1,32.6,29.62,West,279,3.0,3.0,94,0.00,,,0.67,Wunderground v.1.15,2013-03-06 05:32:00,
2013-03-06 00:33:00,34.1,32.6,29.62,West,281,2.0,3.0,94,0.00,,,0.67,Wunderground v.1.15,2013-03-06 05:33:00,
2013-03-06 00:34:00,34.2,32.7,29.62,WNW,295,4.0,4.0,94,0.00,,,0.67,Wunderground v.1.15,2013-03-06 05:34:00,
2013-03-06 00:37:00,34.3,32.8,29.63,West,274,6.0,6.0,94,0.06,,,0.68,Wunderground v.1.15,2013-03-06 05:37:00,
2013-03-06 00:38:00,34.3,32.8,29.63,West,270,3.0,6.0,94,0.06,,,0.68,Wunderground v.1.15,2013-03-06 05:38:00,
2013-03-06 00:42:00,34.4,32.9,29.63,WNW,288,8.0,8.0,94,0.06,,,0.68,Wunderground v.1.15,2013-03-06 05:42:00,
2013-03-06 00:44:00,34.4,32.9,29.63,WNW,298,4.0,8.0,94,0.06,,,0.68,Wunderground v.1.15,2013-03-06 05:44:00,
2013-03-06 00:46:00,34.4,32.9,29.63,NNW,331,7.0,8.0,94,0.06,,,0.68,Wunderground v.1.15,2013-03-06 05:46:00,
2013-03-06 00:49:00,34.5,33.0,29.63,WNW,298,7.0,8.0,94,0.04,,,0.68,Wunderground v.1.15,2013-03-06 05:49:00,
2013-03-06 00:50:00,34.5,33.0,29.63,NW,316,7.0,7.0,94,0.04,,,0.68,Wunderground v.1.15,2013-03-06 05:50:00,
2013-03-06 00:54:00,34.3,32.8,29.63,WNW,296,6.0,10.0,94,0.00,,,0.68,Wunderground v.1.15,2013-03-06 05:54:00,
2013-03-06 00:57:00,34.2,32.7,29.63,NW,319,7.0,10.0,94,0.00,,,0.68,Wunderground v.1.15,2013-03-06 05:57:00,
2013-03-06 00:58:00,34.1,32.6,29.63,WNW,295,8.0,10.0,94,0.00,,,0.68,Wunderground v.1.15,2013-03-06 05:58:00,
2013-03-06 01:04:00,33.7,31.9,29.63,WNW,294,5.0,11.0,93,0.00,,,0.68,Wunderground v.1.15,2013-03-06 06:04:00,
2013-03-06 01:07:00,33.5,31.7,29.63,NNW,333,9.0,11.0,93,0.00,,,0.68,Wunderground v.1.15,2013-03-06 06:07:00,
2013-03-06 01:10:00,33.4,31.6,29.63,NW,309,5.0,5.0,93,0.00,,,0.68,Wunderground v.1.15,2013-03-06 06:10:00,
2013-03-06 01:13:00,33.3,31.5,29.63,NW,307,5.0,12.0,93,0.00,,,0.68,Wunderground v.1.15,2013-03-06 06:13:00,
2013-03-06 01:16:00,33.1,31.3,29.63,WNW,294,6.0,12.0,93,0.00,,,0.68,Wunderground v.1.15,2013-03-06 06:16:00,
2013-03-06 01:18:00,33.0,31.2,29.63,WNW,291,2.0,12.0,93,0.00,,,0.68,Wunderground v.1.15,2013-03-06 06:18:00,
2013-03-06 01:19:00,33.0,31.2,29.63,WNW,288,2.0,12.0,93,0.00,,,0.68,Wunderground v.1.15,2013-03-06 06:19:00,
2013-03-06 01:24:00,32.9,31.1,29.64,NW,310,4.0,9.0,93,0.00,,,0.68,Wunderground v.1.15,2013-03-06 06:24:00,
2013-03-06 01:26:00,32.8,31.0,29.64,WNW,298,5.0,9.0,93,0.00,,,0.68,Wunderground v.1.15,2013-03-06 06:26:00,
2013-03-06 01:29:00,32.7,30.9,29.64,WNW,294,3.0,9.0,93,0.00,,,0.68,Wunderground v.1.15,2013-03-06 06:29:00,
2013-03-06 01:31:00,32.6,30.8,29.64,NW,312,2.0,4.0,93,0.00,,,0.68,Wunderground v.1.15,2013-03-06 06:31:00,
2013-03-06 01:35:00,32.5,30.7,29.64,WNW,303,3.0,4.0,93,0.00,,,0.68,Wunderground v.1.15,2013-03-06 06:35:00,
2013-03-06 01:37:00,32.4,30.6,29.64,NW,315,6.0,6.0,93,0.00,,,0.68,Wunderground v.1.15,2013-03-06 06:37:00,
2013-03-06 01:41:00,32.2,30.4,29.65,WNW,289,5.0,6.0,93,0.00,,,0.68,Wunderground v.1.15,2013-03-06 06:41:00,
2013-03-06 01:42:00,32.2,30.4,29.65,WNW,302,3.0,6.0,93,0.00,,,0.68,Wunderground v.1.15,2013-03-06 06:42:00,
2013-03-06 01:45:00,32.1,30.6,29.64,WNW,293,3.0,6.0,94,0.00,,,0.68,Wunderground v.1.15,2013-03-06 06:45:00,
2013-03-06 01:46:00,32.1,30.6,29.64,NW,319,3.0,6.0,94,0.00,,,0.68,Wunderground v.1.15,2013-03-06 06:46:00,
2013-03-06 01:50:00,32.0,30.5,29.64,WNW,298,3.0,4.0,94,0.00,,,0.68,Wunderground v.1.15,2013-03-06 06:50:00,
2013-03-06 01:52:00,32.0,30.5,29.64,WNW,298,4.0,6.0,94,0.00,,,0.68,Wunderground v.1.15,2013-03-06 06:52:00,
2013-03-06 01:56:00,32.0,30.5,29.64,NW,315,7.0,7.0,94,0.00,,,0.68,Wunderground v.1.15,2013-03-06 06:56:00,
2013-03-06 01:58:00,31.9,30.4,29.64,NW,306,4.0,7.0,94,0.00,,,0.68,Wunderground v.1.15,2013-03-06 06:58:00,
2013-03-06 01:59:00,31.9,30.4,29.64,NW,307,7.0,7.0,94,0.00,,,0.68,Wunderground v.1.15,2013-03-06 06:59:00,
2013-03-06 02:01:00,31.7,30.2,29.64,NW,304,6.0,11.0,94,0.00,,,0.68,Wunderground v.1.15,2013-03-06 07:01:00,
2013-03-06 02:03:00,31.6,30.1,29.64,NW,306,6.0,11.0,94,0.00,,,0.68,Wunderground v.1.15,2013-03-06 07:03:00,
2013-03-06 02:04:00,31.5,30.0,29.64,NW,312,9.0,14.0,94,0.00,,,0.68,Wunderground v.1.15,2013-03-06 07:04:00,
2013-03-06 02:06:00,31.4,29.9,29.64,WNW,302,8.0,15.0,94,0.00,,,0.68,Wunderground v.1.15,2013-03-06 07:06:00,
2013-03-06 02:07:00,31.4,29.9,29.64,WNW,291,6.0,15.0,94,0.00,,,0.68,Wunderground v.1.15,2013-03-06 07:07:00,
2013-03-06 02:08:00,31.3,29.8,29.64,WSW,252,4.0,15.0,94,0.00,,,0.68,Wunderground v.1.15,2013-03-06 07:08:00,
2013-03-06 02:09:00,31.3,29.8,29.64,NNW,336,5.0,15.0,94,0.00,,,0.68,Wunderground v.1.15,2013-03-06 07:09:00,
2013-03-06 02:11:00,31.2,29.7,29.64,WNW,300,10.0,15.0,94,0.00,,,0.68,Wunderground v.1.15,2013-03-06 07:11:00,
2013-03-06 02:13:00,31.1,29.3,29.64,WNW,297,7.0,15.0,93,0.00,,,0.68,Wunderground v.1.15,2013-03-06 07:13:00,
2013-03-06 02:14:00,31.1,29.3,29.64,NW,321,11.0,15.0,93,0.00,,,0.68,Wunderground v.1.15,2013-03-06 07:14:00,
2013-03-06 02:16:00,31.1,29.3,29.64,WNW,291,8.0,15.0,93,0.00,,,0.68,Wunderground v.1.15,2013-03-06 07:16:00,
2013-03-06 02:18:00,31.0,29.2,29.64,West,279,6.0,15.0,93,0.00,,,0.68,Wunderground v.1.15,2013-03-06 07:18:00,
2013-03-06 02:19:00,31.0,29.2,29.64,WNW,287,5.0,15.0,93,0.00,,,0.68,Wunderground v.1.15,2013-03-06 07:19:00,
2013-03-06 02:20:00,31.0,29.2,29.64,NW,306,3.0,8.0,93,0.00,,,0.68,Wunderground v.1.15,2013-03-06 07:20:00,
2013-03-06 02:21:00,31.0,29.2,29.64,WNW,292,7.0,12.0,93,0.00,,,0.68,Wunderground v.1.15,2013-03-06 07:21:00,
2013-03-06 02:23:00,31.0,29.2,29.64,WNW,290,6.0,12.0,93,0.00,,,0.68,Wunderground v.1.15,2013-03-06 07:23:00,
2013-03-06 02:25:00,30.9,29.1,29.64,NW,306,4.0,12.0,93,0.00,,,0.68,Wunderground v.1.15,2013-03-06 07:25:00,
2013-03-06 02:26:00,30.9,29.1,29.64,West,281,6.0,12.0,93,0.00,,,0.68,Wunderground v.1.15,2013-03-06 07:26:00,
2013-03-06 02:27:00,30.9,29.1,29.64,NNW,332,6.0,12.0,93,0.00,,,0.68,Wunderground v.1.15,2013-03-06 07:27:00,
2013-03-06 02:29:00,30.8,29.0,29.64,WNW,286,6.0,12.0,93,0.00,,,0.68,Wunderground v.1.15,2013-03-06 07:29:00,
2013-03-06 02:30:00,30.8,29.0,29.64,NW,317,6.0,6.0,93,0.00,,,0.68,Wunderground v.1.15,2013-03-06 07:30:00,
2013-03-06 02:31:00,30.8,29.0,29.64,WNW,291,5.0,6.0,93,0.00,,,0.68,Wunderground v.1.15,2013-03-06 07:31:00,
2013-03-06 02:33:00,30.8,29.0,29.64,NW,318,6.0,10.0,93,0.00,,,0.68,Wunderground v.1.15,2013-03-06 07:33:00,
2013-03-06 02:34:00,30.8,28.8,29.64,WNW,298,4.0,10.0,92,0.00,,,0.68,Wunderground v.1.15,2013-03-06 07:34:00,
2013-03-06 02:36:00,30.7,28.7,29.64,WNW,285,6.0,10.0,92,0.00,,,0.68,Wunderground v.1.15,2013-03-06 07:36:00,
2013-03-06 02:37:00,30.7,28.7,29.64,WNW,286,3.0,10.0,92,0.00,,,0.68,Wunderground v.1.15,2013-03-06 07:37:00,
2013-03-06 02:38:00,30.7,28.7,29.64,WNW,302,7.0,10.0,92,0.00,,,0.68,Wunderground v.1.15,2013-03-06 07:38:00,
2013-03-06 02:39:00,30.7,28.7,29.64,North,11,6.0,10.0,92,0.00,,,0.68,Wunderground v.1.15,2013-03-06 07:39:00,
2013-03-06 02:41:00,30.7,28.7,29.63,WNW,294,7.0,11.0,92,0.00,,,0.68,Wunderground v.1.15,2013-03-06 07:41:00,
2013-03-06 02:42:00,30.7,28.7,29.63,NNW,329,5.0,11.0,92,0.00,,,0.68,Wunderground v.1.15,2013-03-06 07:42:00,
2013-03-06 02:43:00,30.6,28.6,29.63,West,281,12.0,12.0,92,0.00,,,0.68,Wunderground v.1.15,2013-03-06 07:43:00,
2013-03-06 02:44:00,30.6,28.6,29.63,WNW,288,10.0,15.0,92,0.00,,,0.68,Wunderground v.1.15,2013-03-06 07:44:00,
2013-03-06 02:46:00,30.5,28.5,29.63,WNW,294,4.0,15.0,92,0.00,,,0.68,Wunderground v.1.15,2013-03-06 07:46:00,
2013-03-06 02:47:00,30.5,28.2,29.63,WNW,291,6.0,15.0,91,0.00,,,0.68,Wunderground v.1.15,2013-03-06 07:47:00,
2013-03-06 02:48:00,30.4,28.1,29.63,West,281,7.0,15.0,91,0.00,,,0.68,Wunderground v.1.15,2013-03-06 07:48:00,
2013-03-06 02:50:00,30.4,28.1,29.63,WNW,302,7.0,8.0,91,0.00,,,0.68,Wunderground v.1.15,2013-03-06 07:50:00,
2013-03-06 02:51:00,30.3,28.0,29.63,WNW,302,6.0,9.0,91,0.00,,,0.68,Wunderground v.1.15,2013-03-06 07:51:00,
2013-03-06 02:52:00,30.3,28.0,29.63,NW,315,8.0,9.0,91,0.00,,,0.68,Wunderground v.1.15,2013-03-06 07:52:00,
2013-03-06 02:54:00,30.3,28.0,29.63,West,269,4.0,11.0,91,0.00,,,0.68,Wunderground v.1.15,2013-03-06 07:54:00,
2013-03-06 02:55:00,30.2,27.9,29.63,NW,317,4.0,11.0,91,0.00,,,0.68,Wunderground v.1.15,2013-03-06 07:55:00,
2013-03-06 02:56:00,30.2,27.9,29.63,NW,315,6.0,11.0,91,0.00,,,0.68,Wunderground v.1.15,2013-03-06 07:56:00,
2013-03-06 02:58:00,30.2,27.9,29.63,WNW,290,7.0,11.0,91,0.00,,,0.68,Wunderground v.1.15,2013-03-06 07:58:00,
2013-03-06 02:59:00,30.2,27.9,29.62,NW,304,2.0,11.0,91,0.00,,,0.68,Wunderground v.1.15,2013-03-06 07:59:00,
2013-03-06 03:00:00,30.1,27.8,29.62,WNW,297,10.0,10.0,91,0.00,,,0.68,Wunderground v.1.15,2013-03-06 08:00:00,
2013-03-06 03:01:00,30.0,27.7,29.62,NW,312,6.0,10.0,91,0.00,,,0.68,Wunderground v.1.15,2013-03-06 08:01:00,
2013-03-06 03:03:00,30.0,27.7,29.62,NW,315,7.0,10.0,91,0.00,,,0.68,Wunderground v.1.15,2013-03-06 08:03:00,
2013-03-06 03:04:00,30.0,27.7,29.62,NNW,344,6.0,10.0,91,0.00,,,0.68,Wunderground v.1.15,2013-03-06 08:04:00,
2013-03-06 03:05:00,30.0,27.7,29.62,NW,314,6.0,10.0,91,0.00,,,0.68,Wunderground v.1.15,2013-03-06 08:05:00,
2013-03-06 03:07:00,29.9,27.6,29.63,WNW,300,5.0,10.0,91,0.00,,,0.68,Wunderground v.1.15,2013-03-06 08:07:00,
2013-03-06 03:08:00,29.9,27.6,29.62,WNW,287,5.0,10.0,91,0.00,,,0.68,Wunderground v.1.15,2013-03-06 08:08:00,
2013-03-06 03:09:00,29.9,27.6,29.62,WNW,291,4.0,10.0,91,0.00,,,0.68,Wunderground v.1.15,2013-03-06 08:09:00,
2013-03-06 03:10:00,29.9,27.3,29.62,WNW,302,7.0,8.0,90,0.00,,,0.68,Wunderground v.1.15,2013-03-06 08:10:00,
2013-03-06 03:12:00,29.8,27.2,29.62,NW,304,8.0,11.0,90,0.00,,,0.68,Wunderground v.1.15,2013-03-06 08:12:00,
2013-03-06 03:14:00,29.8,27.0,29.62,WSW,257,8.0,13.0,90,0.00,,,0.68,weatherlink.com 1.10,2013-03-06 08:14:00,
2013-03-06 03:16:00,29.7,27.1,29.62,NW,321,4.0,13.0,90,0.00,,,0.68,Wunderground v.1.15,2013-03-06 08:16:00,
2013-03-06 03:17:00,29.6,27.0,29.62,West,261,14.0,14.0,90,0.00,,,0.68,Wunderground v.1.15,2013-03-06 08:17:00,
2013-03-06 03:19:00,29.6,27.0,29.62,WNW,292,5.0,14.0,90,0.00,,,0.68,Wunderground v.1.15,2013-03-06 08:19:00,
2013-03-06 03:22:00,29.5,26.7,29.62,NW,321,10.0,10.0,89,0.00,,,0.68,Wunderground v.1.15,2013-03-06 08:22:00,
2013-03-06 03:23:00,29.4,26.6,29.62,NW,326,7.0,14.0,89,0.00,,,0.68,Wunderground v.1.15,2013-03-06 08:23:00,
2013-03-06 03:24:00,29.4,26.6,29.62,West,268,7.0,14.0,89,0.00,,,0.68,Wunderground v.1.15,2013-03-06 08:24:00,
2013-03-06 03:25:00,29.4,26.6,29.62,WSW,257,5.0,14.0,89,0.00,,,0.68,Wunderground v.1.15,2013-03-06 08:25:00,
2013-03-06 03:27:00,29.4,26.6,29.62,WNW,283,9.0,14.0,89,0.00,,,0.68,Wunderground v.1.15,2013-03-06 08:27:00,
2013-03-06 03:28:00,29.3,26.5,29.62,West,281,6.0,14.0,89,0.00,,,0.68,Wunderground v.1.15,2013-03-06 08:28:00,
2013-03-06 03:29:00,29.3,26.5,29.62,West,262,7.0,17.0,89,0.00,,,0.68,Wunderground v.1.15,2013-03-06 08:29:00,
2013-03-06 03:30:00,29.3,26.5,29.62,NW,309,6.0,7.0,89,0.00,,,0.68,Wunderground v.1.15,2013-03-06 08:30:00,
2013-03-06 03:32:00,29.2,26.4,29.62,West,281,6.0,8.0,89,0.00,,,0.68,Wunderground v.1.15,2013-03-06 08:32:00,
2013-03-06 03:34:00,29.2,26.4,29.62,NW,306,8.0,8.0,89,0.00,,,0.68,Wunderground v.1.15,2013-03-06 08:34:00,
2013-03-06 03:35:00,29.2,26.4,29.62,West,281,3.0,12.0,89,0.00,,,0.68,Wunderground v.1.15,2013-03-06 08:35:00,
2013-03-06 03:38:00,29.2,26.4,29.62,WNW,286,7.0,12.0,89,0.00,,,0.68,Wunderground v.1.15,2013-03-06 08:38:00,
2013-03-06 03:39:00,29.1,26.3,29.62,WNW,302,7.0,12.0,89,0.00,,,0.68,Wunderground v.1.15,2013-03-06 08:39:00,
2013-03-06 03:40:00,29.1,26.3,29.62,WNW,284,2.0,6.0,89,0.00,,,0.68,Wunderground v.1.15,2013-03-06 08:40:00,
2013-03-06 03:41:00,29.1,26.3,29.62,West,265,6.0,6.0,89,0.00,,,0.68,Wunderground v.1.15,2013-03-06 08:41:00,
2013-03-06 03:43:00,29.0,26.2,29.62,WNW,285,7.0,10.0,89,0.00,,,0.68,Wunderground v.1.15,2013-03-06 08:43:00,
2013-03-06 03:44:00,29.0,26.2,29.62,WNW,294,8.0,10.0,89,0.00,,,0.68,Wunderground v.1.15,2013-03-06 08:44:00,
2013-03-06 03:45:00,29.0,25.9,29.62,WSW,242,7.0,10.0,88,0.00,,,0.68,Wunderground v.1.15,2013-03-06 08:45:00,
2013-03-06 03:46:00,29.0,25.9,29.62,NW,317,7.0,10.0,88,0.00,,,0.68,Wunderground v.1.15,2013-03-06 08:46:00,
2013-03-06 03:48:00,29.0,26.2,29.63,West,271,4.0,10.0,89,0.00,,,0.68,Wunderground v.1.15,2013-03-06 08:48:00,
2013-03-06 03:49:00,29.0,26.2,29.63,WNW,288,7.0,10.0,89,0.00,,,0.68,Wunderground v.1.15,2013-03-06 08:49:00,
2013-03-06 03:51:00,29.0,26.2,29.63,WNW,298,6.0,7.0,89,0.00,,,0.68,Wunderground v.1.15,2013-03-06 08:51:00,
2013-03-06 03:53:00,28.9,25.8,29.62,WNW,299,6.0,13.0,88,0.00,,,0.68,Wunderground v.1.15,2013-03-06 08:53:00,
2013-03-06 03:55:00,28.9,25.8,29.63,West,259,9.0,13.0,88,0.00,,,0.68,Wunderground v.1.15,2013-03-06 08:55:00,
2013-03-06 03:56:00,28.9,25.8,29.63,WSW,257,7.0,13.0,88,0.00,,,0.68,Wunderground v.1.15,2013-03-06 08:56:00,
2013-03-06 03:59:00,28.9,26.1,29.63,WNW,284,9.0,13.0,89,0.00,,,0.68,Wunderground v.1.15,2013-03-06 08:59:00,
2013-03-06 04:00:00,28.9,26.1,29.63,West,277,8.0,10.0,89,0.00,,,0.68,Wunderground v.1.15,2013-03-06 09:00:00,
2013-03-06 04:01:00,28.9,26.1,29.63,WSW,257,5.0,12.0,89,0.00,,,0.68,Wunderground v.1.15,2013-03-06 09:01:00,
2013-03-06 04:04:00,28.8,26.0,29.62,WNW,292,6.0,12.0,89,0.00,,,0.68,Wunderground v.1.15,2013-03-06 09:04:00,
2013-03-06 04:05:00,28.8,26.0,29.62,West,263,8.0,12.0,89,0.00,,,0.68,Wunderground v.1.15,2013-03-06 09:05:00,
2013-03-06 04:06:00,28.8,26.0,29.63,NW,304,3.0,12.0,89,0.00,,,0.68,Wunderground v.1.15,2013-03-06 09:06:00,
2013-03-06 04:09:00,28.7,25.6,29.63,NW,314,6.0,12.0,88,0.00,,,0.68,Wunderground v.1.15,2013-03-06 09:09:00,
2013-03-06 04:11:00,28.7,25.9,29.63,West,280,6.0,8.0,89,0.00,,,0.68,Wunderground v.1.15,2013-03-06 09:11:00,
2013-03-06 04:12:00,28.7,25.9,29.63,WNW,298,5.0,8.0,89,0.00,,,0.68,Wunderground v.1.15,2013-03-06 09:12:00,
2013-03-06 04:15:00,28.6,25.5,29.63,WNW,290,6.0,10.0,88,0.00,,,0.68,Wunderground v.1.15,2013-03-06 09:15:00,
2013-03-06 04:16:00,28.6,25.5,29.63,WNW,283,2.0,10.0,88,0.00,,,0.68,Wunderground v.1.15,2013-03-06 09:16:00,
2013-03-06 04:17:00,28.6,25.5,29.63,WNW,286,10.0,10.0,88,0.00,,,0.68,Wunderground v.1.15,2013-03-06 09:17:00,
2013-03-06 04:20:00,28.5,25.4,29.63,NW,305,10.0,10.0,88,0.00,,,0.68,Wunderground v.1.15,2013-03-06 09:20:00,
2013-03-06 04:21:00,28.5,25.4,29.63,NW,305,8.0,13.0,88,0.00,,,0.68,Wunderground v.1.15,2013-03-06 09:21:00,
2013-03-06 04:22:00,28.5,25.1,29.63,West,273,7.0,13.0,87,0.00,,,0.68,Wunderground v.1.15,2013-03-06 09:22:00,
2013-03-06 04:25:00,28.5,25.1,29.63,WNW,288,6.0,13.0,87,0.00,,,0.68,Wunderground v.1.15,2013-03-06 09:25:00,
2013-03-06 04:26:00,28.5,25.1,29.63,West,273,10.0,13.0,87,0.00,,,0.68,Wunderground v.1.15,2013-03-06 09:26:00,
2013-03-06 04:27:00,28.5,25.1,29.63,NW,306,6.0,13.0,87,0.00,,,0.68,Wunderground v.1.15,2013-03-06 09:27:00,
2013-03-06 04:30:00,28.4,25.0,29.63,WNW,287,6.0,8.0,87,0.00,,,0.68,Wunderground v.1.15,2013-03-06 09:30:00,
2013-03-06 04:31:00,28.5,25.1,29.63,WNW,284,5.0,8.0,87,0.00,,,0.68,Wunderground v.1.15,2013-03-06 09:31:00,
2013-03-06 04:33:00,28.4,25.0,29.63,WNW,300,5.0,8.0,87,0.00,,,0.68,Wunderground v.1.15,2013-03-06 09:33:00,
2013-03-06 04:36:00,28.4,25.0,29.63,WNW,287,6.0,15.0,87,0.00,,,0.68,Wunderground v.1.15,2013-03-06 09:36:00,
2013-03-06 04:37:00,28.4,25.0,29.63,WNW,296,3.0,15.0,87,0.00,,,0.68,Wunderground v.1.15,2013-03-06 09:37:00,
2013-03-06 04:38:00,28.4,25.0,29.63,WNW,291,3.0,15.0,87,0.00,,,0.68,Wunderground v.1.15,2013-03-06 09:38:00,
2013-03-06 04:41:00,28.3,24.9,29.63,NW,313,4.0,7.0,87,0.00,,,0.68,Wunderground v.1.15,2013-03-06 09:41:00,
2013-03-06 04:42:00,28.3,25.2,29.63,WNW,284,4.0,8.0,88,0.00,,,0.68,Wunderground v.1.15,2013-03-06 09:42:00,
2013-03-06 04:43:00,28.3,25.2,29.63,WNW,292,11.0,13.0,88,0.00,,,0.68,Wunderground v.1.15,2013-03-06 09:43:00,
2013-03-06 04:46:00,28.2,25.1,29.63,NW,309,8.0,13.0,88,0.00,,,0.68,Wunderground v.1.15,2013-03-06 09:46:00,
2013-03-06 04:47:00,28.2,25.1,29.63,NW,316,5.0,13.0,88,0.00,,,0.68,Wunderground v.1.15,2013-03-06 09:47:00,
2013-03-06 04:48:00,28.2,25.1,29.63,WNW,300,8.0,13.0,88,0.00,,,0.68,Wunderground v.1.15,2013-03-06 09:48:00,
2013-03-06 04:51:00,28.2,25.1,29.63,WNW,284,5.0,8.0,88,0.00,,,0.68,Wunderground v.1.15,2013-03-06 09:51:00,
2013-03-06 04:52:00,28.2,25.1,29.63,WNW,289,6.0,9.0,88,0.00,,,0.68,Wunderground v.1.15,2013-03-06 09:52:00,
2013-03-06 04:53:00,28.1,25.0,29.63,WNW,290,10.0,10.0,88,0.00,,,0.68,Wunderground v.1.15,2013-03-06 09:53:00,
2013-03-06 04:56:00,28.1,25.0,29.63,West,273,9.0,10.0,88,0.00,,,0.68,Wunderground v.1.15,2013-03-06 09:56:00,
2013-03-06 04:57:00,28.1,25.0,29.63,WNW,294,6.0,10.0,88,0.00,,,0.68,Wunderground v.1.15,2013-03-06 09:57:00,
2013-03-06 04:58:00,28.1,25.0,29.63,West,277,8.0,16.0,88,0.00,,,0.68,Wunderground v.1.15,2013-03-06 09:58:00,
2013-03-06 05:01:00,28.0,24.9,29.63,NW,304,9.0,12.0,88,0.00,,,0.68,Wunderground v.1.15,2013-03-06 10:01:00,
2013-03-06 05:02:00,28.0,24.9,29.63,WSW,256,4.0,12.0,88,0.00,,,0.68,Wunderground v.1.15,2013-03-06 10:02:00,
2013-03-06 05:03:00,28.0,24.9,29.64,WNW,283,11.0,12.0,88,0.00,,,0.68,Wunderground v.1.15,2013-03-06 10:03:00,
2013-03-06 05:06:00,27.9,24.8,29.63,WNW,303,10.0,12.0,88,0.00,,,0.68,Wunderground v.1.15,2013-03-06 10:06:00,
2013-03-06 05:07:00,27.9,24.8,29.63,WNW,295,6.0,12.0,88,0.00,,,0.68,Wunderground v.1.15,2013-03-06 10:07:00,
2013-03-06 05:08:00,27.8,24.7,29.63,West,281,9.0,12.0,88,0.00,,,0.68,Wunderground v.1.15,2013-03-06 10:08:00,
2013-03-06 05:09:00,27.8,24.7,29.64,NW,312,12.0,14.0,88,0.00,,,0.68,Wunderground v.1.15,2013-03-06 10:09:00,
2013-03-06 05:11:00,27.7,24.6,29.64,WNW,288,8.0,11.0,88,0.00,,,0.68,Wunderground v.1.15,2013-03-06 10:11:00,
2013-03-06 05:12:00,27.6,24.5,29.64,NW,306,10.0,11.0,88,0.00,,,0.68,Wunderground v.1.15,2013-03-06 10:12:00,
2013-03-06 05:13:00,27.6,24.5,29.64,WNW,302,13.0,16.0,88,0.00,,,0.68,Wunderground v.1.15,2013-03-06 10:13:00,
2013-03-06 05:14:00,27.6,24.5,29.64,WNW,298,7.0,16.0,88,0.00,,,0.68,Wunderground v.1.15,2013-03-06 10:14:00,
2013-03-06 05:16:00,27.4,24.3,29.64,NW,308,6.0,16.0,88,0.00,,,0.68,Wunderground v.1.15,2013-03-06 10:16:00,
2013-03-06 05:17:00,27.4,24.3,29.64,NW,311,10.0,16.0,88,0.00,,,0.68,Wunderground v.1.15,2013-03-06 10:17:00,
2013-03-06 05:18:00,27.4,24.3,29.64,WNW,284,10.0,16.0,88,0.00,,,0.68,Wunderground v.1.15,2013-03-06 10:18:00,
2013-03-06 05:19:00,27.3,24.2,29.64,NW,321,6.0,17.0,88,0.00,,,0.68,Wunderground v.1.15,2013-03-06 10:19:00,
2013-03-06 05:22:00,27.2,24.1,29.64,WNW,295,6.0,12.0,88,0.00,,,0.68,Wunderground v.1.15,2013-03-06 10:22:00,
2013-03-06 05:23:00,27.2,24.1,29.64,West,278,7.0,12.0,88,0.00,,,0.68,Wunderground v.1.15,2013-03-06 10:23:00,
2013-03-06 05:24:00,27.2,24.1,29.64,NW,315,6.0,12.0,88,0.00,,,0.68,Wunderground v.1.15,2013-03-06 10:24:00,
2013-03-06 05:27:00,27.1,23.7,29.64,WNW,298,10.0,13.0,87,0.00,,,0.68,Wunderground v.1.15,2013-03-06 10:27:00,
2013-03-06 05:28:00,27.1,23.7,29.64,WNW,301,14.0,17.0,87,0.00,,,0.68,Wunderground v.1.15,2013-03-06 10:28:00,
2013-03-06 05:29:00,27.1,23.7,29.64,WNW,294,10.0,17.0,87,0.00,,,0.68,Wunderground v.1.15,2013-03-06 10:29:00,
2013-03-06 05:32:00,27.0,23.6,29.64,WNW,294,7.0,14.0,87,0.00,,,0.68,Wunderground v.1.15,2013-03-06 10:32:00,
2013-03-06 05:33:00,27.0,23.6,29.64,SSW,198,4.0,14.0,87,0.00,,,0.68,Wunderground v.1.15,2013-03-06 10:33:00,
2013-03-06 05:34:00,27.0,23.9,29.64,WNW,300,6.0,14.0,88,0.00,,,0.68,Wunderground v.1.15,2013-03-06 10:34:00,
2013-03-06 05:35:00,27.0,23.9,29.64,WNW,287,10.0,14.0,88,0.00,,,0.68,Wunderground v.1.15,2013-03-06 10:35:00,
2013-03-06 05:37:00,27.0,23.6,29.64,NNW,327,7.0,14.0,87,0.00,,,0.68,Wunderground v.1.15,2013-03-06 10:37:00,
2013-03-06 05:38:00,27.0,23.6,29.64,WNW,293,3.0,14.0,87,0.00,,,0.68,Wunderground v.1.15,2013-03-06 10:38:00,
2013-03-06 05:40:00,27.0,23.6,29.64,WNW,285,6.0,14.0,87,0.00,,,0.68,Wunderground v.1.15,2013-03-06 10:40:00,
2013-03-06 05:42:00,27.0,23.6,29.64,WNW,302,11.0,18.0,87,0.00,,,0.68,Wunderground v.1.15,2013-03-06 10:42:00,
2013-03-06 05:43:00,27.0,23.6,29.64,WSW,251,5.0,18.0,87,0.00,,,0.68,Wunderground v.1.15,2013-03-06 10:43:00,
2013-03-06 05:45:00,27.0,23.6,29.64,NW,319,8.0,18.0,87,0.00,,,0.68,Wunderground v.1.15,2013-03-06 10:45:00,
2013-03-06 05:47:00,27.0,23.6,29.64,WNW,287,4.0,18.0,87,0.00,,,0.68,Wunderground v.1.15,2013-03-06 10:47:00,
2013-03-06 05:48:00,26.9,23.5,29.64,NNW,348,7.0,18.0,87,0.00,,,0.68,Wunderground v.1.15,2013-03-06 10:48:00,
2013-03-06 05:50:00,26.9,23.3,29.64,WNW,300,5.0,13.0,86,0.00,,,0.68,Wunderground v.1.15,2013-03-06 10:50:00,
2013-03-06 05:51:00,26.9,23.3,29.64,SW,229,7.0,13.0,86,0.00,,,0.68,Wunderground v.1.15,2013-03-06 10:51:00,
2013-03-06 05:52:00,27.0,23.1,29.64,WNW,282,10.0,17.0,85,0.00,,,0.68,Wunderground v.1.15,2013-03-06 10:52:00,
2013-03-06 05:53:00,27.0,23.1,29.64,WNW,298,8.0,17.0,85,0.00,,,0.68,Wunderground v.1.15,2013-03-06 10:53:00,
2013-03-06 05:56:00,27.0,23.4,29.64,WSW,246,7.0,17.0,86,0.00,,,0.68,Wunderground v.1.15,2013-03-06 10:56:00,
2013-03-06 05:58:00,26.9,23.0,29.64,NW,308,7.0,17.0,85,0.00,,,0.68,Wunderground v.1.15,2013-03-06 10:58:00,
2013-03-06 06:01:00,26.9,23.0,29.64,West,281,10.0,11.0,85,0.00,,,0.68,Wunderground v.1.15,2013-03-06 11:01:00,
2013-03-06 06:03:00,26.9,23.0,29.64,WNW,297,5.0,14.0,85,0.00,,,0.68,Wunderground v.1.15,2013-03-06 11:03:00,
2013-03-06 06:06:00,26.9,23.0,29.65,WNW,292,5.0,14.0,85,0.00,,,0.68,Wunderground v.1.15,2013-03-06 11:06:00,
2013-03-06 06:08:00,26.9,22.7,29.65,WNW,285,9.0,15.0,84,0.00,,,0.68,Wunderground v.1.15,2013-03-06 11:08:00,
2013-03-06 06:09:00,26.9,22.7,29.64,WNW,298,7.0,15.0,84,0.00,,,0.68,Wunderground v.1.15,2013-03-06 11:09:00,
2013-03-06 06:11:00,26.9,22.7,29.65,SW,215,11.0,13.0,84,0.00,,,0.68,Wunderground v.1.15,2013-03-06 11:11:00,
2013-03-06 06:13:00,26.8,22.6,29.65,NW,304,10.0,13.0,84,0.00,,,0.68,Wunderground v.1.15,2013-03-06 11:13:00,
2013-03-06 06:14:00,26.8,22.6,29.65,WNW,299,14.0,18.0,84,0.00,,,0.68,Wunderground v.1.15,2013-03-06 11:14:00,
2013-03-06 06:17:00,26.8,22.6,29.65,WNW,298,9.0,18.0,84,0.00,,,0.68,Wunderground v.1.15,2013-03-06 11:17:00,
2013-03-06 06:18:00,26.7,22.5,29.66,WNW,286,8.0,18.0,84,0.00,,,0.68,Wunderground v.1.15,2013-03-06 11:18:00,
2013-03-06 06:19:00,26.7,22.5,29.65,NW,321,9.0,18.0,84,0.00,,,0.68,Wunderground v.1.15,2013-03-06 11:19:00,
2013-03-06 06:22:00,26.7,22.5,29.65,WNW,283,8.0,15.0,84,0.00,,,0.68,Wunderground v.1.15,2013-03-06 11:22:00,
2013-03-06 06:23:00,26.7,22.5,29.65,WNW,286,10.0,15.0,84,0.00,,,0.68,Wunderground v.1.15,2013-03-06 11:23:00,
2013-03-06 06:24:00,26.7,22.5,29.66,WNW,294,9.0,15.0,84,0.00,,,0.68,Wunderground v.1.15,2013-03-06 11:24:00,
2013-03-06 06:27:00,26.7,22.8,29.66,WNW,290,10.0,15.0,85,0.00,,,0.68,Wunderground v.1.15,2013-03-06 11:27:00,
2013-03-06 06:28:00,26.6,22.7,29.65,WNW,294,9.0,15.0,85,0.00,,,0.68,Wunderground v.1.15,2013-03-06 11:28:00,
2013-03-06 06:29:00,26.6,22.4,29.66,WNW,301,9.0,15.0,84,0.00,,,0.68,Wunderground v.1.15,2013-03-06 11:29:00,
2013-03-06 06:32:00,26.6,22.4,29.66,NNE,23,8.0,17.0,84,0.00,,,0.68,Wunderground v.1.15,2013-03-06 11:32:00,
2013-03-06 06:33:00,26.5,22.6,29.66,WNW,289,8.0,17.0,85,0.00,,,0.68,Wunderground v.1.15,2013-03-06 11:33:00,
2013-03-06 06:34:00,26.5,22.6,29.66,West,270,10.0,17.0,85,0.00,,,0.68,Wunderground v.1.15,2013-03-06 11:34:00,
2013-03-06 06:37:00,26.5,22.6,29.66,NW,315,6.0,17.0,85,0.00,,,0.68,Wunderground v.1.15,2013-03-06 11:37:00,
2013-03-06 06:39:00,26.4,22.5,29.66,NW,318,7.0,17.0,85,0.00,,,0.68,Wunderground v.1.15,2013-03-06 11:39:00,
2013-03-06 06:42:00,26.4,22.8,29.66,WNW,290,8.0,12.0,86,0.00,,,0.68,Wunderground v.1.15,2013-03-06 11:42:00,
2013-03-06 06:44:00,26.3,22.7,29.66,West,275,12.0,12.0,86,0.00,,,0.68,Wunderground v.1.15,2013-03-06 11:44:00,
2013-03-06 06:45:00,26.3,22.7,29.66,West,271,9.0,20.0,86,0.00,,,0.68,Wunderground v.1.15,2013-03-06 11:45:00,
2013-03-06 06:48:00,26.3,22.7,29.66,West,261,4.0,20.0,86,0.00,,,0.68,Wunderground v.1.15,2013-03-06 11:48:00,
2013-03-06 06:49:00,26.3,22.7,29.66,WNW,292,9.0,20.0,86,0.00,,,0.68,Wunderground v.1.15,2013-03-06 11:49:00,
2013-03-06 06:50:00,26.2,22.6,29.66,WNW,294,9.0,13.0,86,0.00,,,0.68,Wunderground v.1.15,2013-03-06 11:50:00,
2013-03-06 06:54:00,26.2,23.0,29.66,WNW,282,8.0,18.0,86,0.00,,,0.68,weatherlink.com 1.10,2013-03-06 11:54:00,
2013-03-06 06:56:00,26.3,22.7,29.66,WNW,301,7.0,13.0,86,0.00,,,0.68,Wunderground v.1.15,2013-03-06 11:56:00,
2013-03-06 06:59:00,26.2,22.9,29.66,West,271,10.0,13.0,87,0.00,,,0.68,Wunderground v.1.15,2013-03-06 11:59:00,
2013-03-06 07:00:00,26.2,22.9,29.66,WNW,295,6.0,10.0,87,0.00,,,0.68,Wunderground v.1.15,2013-03-06 12:00:00,
2013-03-06 07:01:00,26.2,22.9,29.66,WNW,297,7.0,10.0,87,0.00,,,0.68,Wunderground v.1.15,2013-03-06 12:01:00,
2013-03-06 07:04:00,26.2,22.9,29.66,WNW,290,9.0,15.0,87,0.00,,,0.68,Wunderground v.1.15,2013-03-06 12:04:00,
2013-03-06 07:05:00,26.1,22.8,29.66,WNW,282,5.0,15.0,87,0.00,,,0.68,Wunderground v.1.15,2013-03-06 12:05:00,
2013-03-06 07:06:00,26.1,23.0,29.66,WNW,284,5.0,15.0,88,0.00,,,0.68,Wunderground v.1.15,2013-03-06 12:06:00,
2013-03-06 07:09:00,26.1,23.0,29.67,WNW,298,11.0,15.0,88,0.00,,,0.68,Wunderground v.1.15,2013-03-06 12:09:00,
2013-03-06 07:10:00,26.1,23.0,29.67,WSW,258,3.0,8.0,88,0.00,,,0.68,Wunderground v.1.15,2013-03-06 12:10:00,
2013-03-06 07:11:00,26.0,22.9,29.67,WNW,295,4.0,8.0,88,0.00,,,0.68,Wunderground v.1.15,2013-03-06 12:11:00,
2013-03-06 07:14:00,26.0,22.9,29.67,WNW,286,14.0,14.0,88,0.00,,,0.68,Wunderground v.1.15,2013-03-06 12:14:00,
2013-03-06 07:15:00,26.0,22.9,29.67,WNW,299,8.0,14.0,88,0.00,,,0.68,Wunderground v.1.15,2013-03-06 12:15:00,
2013-03-06 07:16:00,25.9,22.8,29.67,West,277,7.0,14.0,88,0.00,,,0.68,Wunderground v.1.15,2013-03-06 12:16:00,
2013-03-06 07:19:00,25.8,22.7,29.67,West,273,10.0,14.0,88,0.00,,,0.68,Wunderground v.1.15,2013-03-06 12:19:00,
2013-03-06 07:20:00,25.8,22.7,29.67,WNW,299,7.0,8.0,88,0.00,,,0.68,Wunderground v.1.15,2013-03-06 12:20:00,
2013-03-06 07:21:00,25.8,22.7,29.67,WNW,294,6.0,8.0,88,0.00,,,0.68,Wunderground v.1.15,2013-03-06 12:21:00,
2013-03-06 07:25:00,25.7,22.6,29.67,West,259,10.0,19.0,88,0.00,,,0.68,Wunderground v.1.15,2013-03-06 12:25:00,
2013-03-06 07:27:00,25.7,22.6,29.67,WNW,288,10.0,19.0,88,0.00,,,0.68,Wunderground v.1.15,2013-03-06 12:27:00,
2013-03-06 07:30:00,25.6,22.5,29.67,WNW,291,10.0,12.0,88,0.00,,,0.68,Wunderground v.1.15,2013-03-06 12:30:00,
2013-03-06 07:32:00,25.6,22.5,29.67,NNW,340,9.0,18.0,88,0.00,,,0.68,Wunderground v.1.15,2013-03-06 12:32:00,
2013-03-06 07:35:00,25.6,22.5,29.68,NW,309,11.0,18.0,88,0.00,,,0.68,Wunderground v.1.15,2013-03-06 12:35:00,
2013-03-06 07:36:00,25.6,22.5,29.68,WNW,290,8.0,18.0,88,0.00,,,0.68,Wunderground v.1.15,2013-03-06 12:36:00,
2013-03-06 07:37:00,25.6,22.5,29.68,WNW,295,12.0,18.0,88,0.00,,,0.68,Wunderground v.1.15,2013-03-06 12:37:00,
2013-03-06 07:40:00,25.5,22.2,29.68,West,280,7.0,18.0,87,0.00,,,0.68,Wunderground v.1.15,2013-03-06 12:40:00,
2013-03-06 07:41:00,25.5,22.2,29.68,NW,306,8.0,18.0,87,0.00,,,0.68,Wunderground v.1.15,2013-03-06 12:41:00,
2013-03-06 07:42:00,25.5,22.2,29.68,NW,310,4.0,18.0,87,0.00,,,0.68,Wunderground v.1.15,2013-03-06 12:42:00,
2013-03-06 07:45:00,25.5,22.2,29.68,West,278,10.0,18.0,87,0.00,,,0.68,Wunderground v.1.15,2013-03-06 12:45:00,
2013-03-06 07:47:00,25.6,22.3,29.68,WNW,301,7.0,18.0,87,0.00,,,0.68,Wunderground v.1.15,2013-03-06 12:47:00,
2013-03-06 07:48:00,25.6,22.3,29.68,WNW,297,10.0,18.0,87,0.00,,,0.68,Wunderground v.1.15,2013-03-06 12:48:00,
2013-03-06 07:50:00,25.6,22.3,29.69,West,279,4.0,11.0,87,0.00,,,0.68,Wunderground v.1.15,2013-03-06 12:50:00,
2013-03-06 07:52:00,25.5,22.2,29.69,WNW,294,15.0,19.0,87,0.00,,,0.68,Wunderground v.1.15,2013-03-06 12:52:00,
2013-03-06 07:53:00,25.5,22.2,29.69,WNW,286,10.0,19.0,87,0.00,,,0.68,Wunderground v.1.15,2013-03-06 12:53:00,
2013-03-06 07:56:00,25.5,21.9,29.69,WNW,295,13.0,19.0,86,0.00,,,0.68,Wunderground v.1.15,2013-03-06 12:56:00,
2013-03-06 07:58:00,25.5,21.9,29.69,WNW,302,10.0,19.0,86,0.00,,,0.68,Wunderground v.1.15,2013-03-06 12:58:00,
2013-03-06 08:02:00,25.5,21.9,29.69,WNW,288,11.0,16.0,86,0.00,,,0.68,Wunderground v.1.15,2013-03-06 13:02:00,
2013-03-06 08:03:00,25.5,21.9,29.70,NW,326,13.0,16.0,86,0.00,,,0.68,Wunderground v.1.15,2013-03-06 13:03:00,
2013-03-06 08:07:00,25.5,21.6,29.70,WNW,296,5.0,19.0,85,0.00,,,0.68,Wunderground v.1.15,2013-03-06 13:07:00,
2013-03-06 08:08:00,25.5,21.6,29.70,WNW,285,11.0,19.0,85,0.00,,,0.68,Wunderground v.1.15,2013-03-06 13:08:00,
2013-03-06 08:13:00,25.5,21.6,29.70,SW,232,8.0,16.0,85,0.00,,,0.68,Wunderground v.1.15,2013-03-06 13:13:00,
2013-03-06 08:14:00,25.5,21.6,29.70,WNW,288,5.0,16.0,85,0.00,,,0.68,Wunderground v.1.15,2013-03-06 13:14:00,
2013-03-06 08:18:00,25.6,21.7,29.70,WNW,296,7.0,16.0,85,0.00,,,0.68,Wunderground v.1.15,2013-03-06 13:18:00,
2013-03-06 08:19:00,25.6,21.7,29.70,WNW,300,10.0,16.0,85,0.00,,,0.68,Wunderground v.1.15,2013-03-06 13:19:00,
2013-03-06 08:24:00,25.6,21.7,29.70,WNW,286,6.0,19.0,85,0.00,,,0.68,Wunderground v.1.15,2013-03-06 13:24:00,
2013-03-06 08:29:00,25.6,21.7,29.70,NW,313,4.0,19.0,85,0.00,,,0.68,Wunderground v.1.15,2013-03-06 13:29:00,
2013-03-06 08:34:00,25.6,21.7,29.70,NNW,338,10.0,20.0,85,0.00,,,0.68,Wunderground v.1.15,2013-03-06 13:34:00,
2013-03-06 08:35:00,25.6,22.0,29.70,WNW,295,6.0,20.0,86,0.00,,,0.68,Wunderground v.1.15,2013-03-06 13:35:00,
2013-03-06 08:39:00,25.5,21.9,29.70,West,265,10.0,20.0,86,0.00,,,0.68,Wunderground v.1.15,2013-03-06 13:39:00,
2013-03-06 08:40:00,25.5,22.2,29.70,WNW,296,9.0,10.0,87,0.00,,,0.68,Wunderground v.1.15,2013-03-06 13:40:00,
2013-03-06 08:44:00,25.6,22.3,29.71,WNW,298,11.0,23.0,87,0.00,,,0.68,Wunderground v.1.15,2013-03-06 13:44:00,
2013-03-06 08:45:00,25.6,22.3,29.71,West,279,10.0,23.0,87,0.00,,,0.68,Wunderground v.1.15,2013-03-06 13:45:00,
2013-03-06 08:49:00,25.5,22.2,29.72,WNW,303,8.0,23.0,87,0.00,,,0.68,Wunderground v.1.15,2013-03-06 13:49:00,
2013-03-06 08:50:00,25.6,22.3,29.72,West,272,10.0,12.0,87,0.00,,,0.68,Wunderground v.1.15,2013-03-06 13:50:00,
2013-03-06 08:54:00,25.6,22.3,29.72,WNW,296,10.0,14.0,87,0.00,,,0.68,Wunderground v.1.15,2013-03-06 13:54:00,
2013-03-06 08:55:00,25.6,22.3,29.72,WNW,296,7.0,14.0,87,0.00,,,0.68,Wunderground v.1.15,2013-03-06 13:55:00,
2013-03-06 08:56:00,25.6,22.0,29.73,WNW,288,5.0,14.0,86,0.00,,,0.68,Wunderground v.1.15,2013-03-06 13:56:00,
2013-03-06 08:59:00,25.7,22.1,29.72,WNW,286,7.0,14.0,86,0.00,,,0.68,Wunderground v.1.15,2013-03-06 13:59:00,
2013-03-06 09:00:00,25.7,22.1,29.72,NW,322,6.0,11.0,86,0.00,,,0.68,Wunderground v.1.15,2013-03-06 14:00:00,
2013-03-06 09:01:00,25.7,22.1,29.73,South,182,8.0,11.0,86,0.00,,,0.68,Wunderground v.1.15,2013-03-06 14:01:00,
2013-03-06 09:05:00,25.7,22.1,29.72,WNW,301,9.0,18.0,86,0.00,,,0.68,Wunderground v.1.15,2013-03-06 14:05:00,
2013-03-06 09:06:00,25.7,22.1,29.72,WNW,302,8.0,18.0,86,0.00,,,0.68,Wunderground v.1.15,2013-03-06 14:06:00,
2013-03-06 09:10:00,25.8,21.9,29.73,West,275,9.0,10.0,85,0.00,,,0.68,Wunderground v.1.15,2013-03-06 14:10:00,
2013-03-06 09:11:00,25.8,22.2,29.72,NW,312,9.0,16.0,86,0.00,,,0.68,Wunderground v.1.15,2013-03-06 14:11:00,
2013-03-06 09:12:00,25.8,21.9,29.73,WNW,290,13.0,19.0,85,0.00,,,0.68,Wunderground v.1.15,2013-03-06 14:12:00,
2013-03-06 09:15:00,25.8,21.9,29.73,West,275,9.0,23.0,85,0.00,,,0.68,Wunderground v.1.15,2013-03-06 14:15:00,
2013-03-06 09:16:00,25.8,21.9,29.73,NW,312,10.0,23.0,85,0.00,,,0.68,Wunderground v.1.15,2013-03-06 14:16:00,
2013-03-06 09:17:00,25.8,21.9,29.73,West,281,10.0,23.0,85,0.00,,,0.68,Wunderground v.1.15,2013-03-06 14:17:00,
2013-03-06 09:20:00,25.9,22.0,29.73,North,9,6.0,10.0,85,0.00,,,0.68,Wunderground v.1.15,2013-03-06 14:20:00,
2013-03-06 09:21:00,25.9,23.9,29.73,NW,324,10.0,12.0,92,0.00,,,0.68,Wunderground v.1.15,2013-03-06 14:21:00,
2013-03-06 09:22:00,25.9,22.0,29.74,NW,309,14.0,17.0,85,0.00,,,0.68,Wunderground v.1.15,2013-03-06 14:22:00,
2013-03-06 09:25:00,26.0,21.8,29.74,West,277,9.0,17.0,84,0.00,,,0.68,Wunderground v.1.15,2013-03-06 14:25:00,
2013-03-06 09:26:00,26.0,21.8,29.74,WSW,251,8.0,17.0,84,0.00,,,0.68,Wunderground v.1.15,2013-03-06 14:26:00,
2013-03-06 09:27:00,26.0,22.1,29.74,NW,315,7.0,17.0,85,0.00,,,0.68,Wunderground v.1.15,2013-03-06 14:27:00,
2013-03-06 09:31:00,26.0,22.1,29.74,WNW,301,8.0,13.0,85,0.00,,,0.68,Wunderground v.1.15,2013-03-06 14:31:00,
2013-03-06 09:32:00,26.0,22.1,29.75,WNW,282,8.0,20.0,85,0.00,,,0.68,Wunderground v.1.15,2013-03-06 14:32:00,
2013-03-06 09:36:00,26.0,22.1,29.75,NW,323,8.0,20.0,85,0.00,,,0.68,Wunderground v.1.15,2013-03-06 14:36:00,
2013-03-06 09:38:00,26.0,22.1,29.75,WNW,301,8.0,20.0,85,0.00,,,0.68,Wunderground v.1.15,2013-03-06 14:38:00,
2013-03-06 09:41:00,26.0,22.1,29.75,WNW,288,8.0,18.0,85,0.00,,,0.68,Wunderground v.1.15,2013-03-06 14:41:00,
2013-03-06 09:42:00,26.0,22.1,29.75,WNW,292,7.0,18.0,85,0.00,,,0.68,Wunderground v.1.15,2013-03-06 14:42:00,
2013-03-06 09:43:00,26.0,22.1,29.75,WNW,296,8.0,18.0,85,0.00,,,0.68,Wunderground v.1.15,2013-03-06 14:43:00,
2013-03-06 09:46:00,26.2,22.3,29.74,West,270,11.0,18.0,85,0.00,,,0.68,Wunderground v.1.15,2013-03-06 14:46:00,
2013-03-06 09:47:00,26.2,22.3,29.74,WSW,250,9.0,18.0,85,0.00,,,0.68,Wunderground v.1.15,2013-03-06 14:47:00,
2013-03-06 09:48:00,26.2,22.3,29.74,WNW,298,7.0,18.0,85,0.00,,,0.68,Wunderground v.1.15,2013-03-06 14:48:00,
2013-03-06 09:52:00,26.3,22.4,29.74,WNW,297,11.0,15.0,85,0.00,,,0.68,Wunderground v.1.15,2013-03-06 14:52:00,
2013-03-06 09:54:00,26.4,22.5,29.74,West,275,14.0,15.0,85,0.00,,,0.68,Wunderground v.1.15,2013-03-06 14:54:00,
2013-03-06 09:57:00,26.6,22.7,29.73,WNW,292,14.0,20.0,85,0.00,,,0.68,Wunderground v.1.15,2013-03-06 14:57:00,
2013-03-06 09:58:00,26.6,22.7,29.73,WNW,292,12.0,20.0,85,0.00,,,0.68,Wunderground v.1.15,2013-03-06 14:58:00,
2013-03-06 09:59:00,26.8,22.9,29.73,NW,306,19.0,20.0,85,0.00,,,0.00,Wunderground v.1.15,2013-03-06 14:59:00,
2013-03-06 10:03:00,27.0,22.8,29.73,NW,305,9.0,16.0,84,0.00,,,0.00,Wunderground v.1.15,2013-03-06 15:03:00,
2013-03-06 10:04:00,27.1,22.9,29.73,WNW,290,7.0,21.0,84,0.00,,,0.00,Wunderground v.1.15,2013-03-06 15:04:00,
2013-03-06 10:08:00,27.3,22.8,29.74,NW,324,11.0,27.0,83,0.00,,,0.00,Wunderground v.1.15,2013-03-06 15:08:00,
2013-03-06 10:09:00,27.3,22.8,29.74,WNW,292,15.0,27.0,83,0.00,,,0.00,Wunderground v.1.15,2013-03-06 15:09:00,
2013-03-06 10:10:00,27.3,22.8,29.74,WNW,299,7.0,11.0,83,0.00,,,0.00,Wunderground v.1.15,2013-03-06 15:10:00,
2013-03-06 10:13:00,27.4,22.9,29.74,WNW,294,7.0,15.0,83,0.00,,,0.00,Wunderground v.1.15,2013-03-06 15:13:00,
2013-03-06 10:14:00,27.4,22.9,29.74,WNW,297,11.0,15.0,83,0.00,,,0.00,Wunderground v.1.15,2013-03-06 15:14:00,
2013-03-06 10:15:00,27.4,22.6,29.74,WNW,288,15.0,15.0,82,0.00,,,0.00,Wunderground v.1.15,2013-03-06 15:15:00,
2013-03-06 10:18:00,27.4,22.6,29.75,WNW,290,6.0,18.0,82,0.00,,,0.00,Wunderground v.1.15,2013-03-06 15:18:00,
2013-03-06 10:19:00,27.4,22.9,29.75,West,279,13.0,24.0,83,0.00,,,0.00,Wunderground v.1.15,2013-03-06 15:19:00,
2013-03-06 10:20:00,27.4,22.6,29.74,West,260,6.0,11.0,82,0.00,,,0.00,Wunderground v.1.15,2013-03-06 15:20:00,
2013-03-06 10:21:00,27.5,23.0,29.75,WNW,297,8.0,14.0,83,0.00,,,0.00,Wunderground v.1.15,2013-03-06 15:21:00,
2013-03-06 10:23:00,27.6,22.8,29.75,West,279,10.0,21.0,82,0.00,,,0.00,Wunderground v.1.15,2013-03-06 15:23:00,
2013-03-06 10:24:00,27.6,22.8,29.75,NW,309,13.0,21.0,82,0.00,,,0.00,Wunderground v.1.15,2013-03-06 15:24:00,
2013-03-06 10:25:00,27.6,22.8,29.75,NW,319,9.0,21.0,82,0.00,,,0.00,Wunderground v.1.15,2013-03-06 15:25:00,
2013-03-06 10:26:00,27.7,22.9,29.75,NW,309,6.0,21.0,82,0.00,,,0.00,Wunderground v.1.15,2013-03-06 15:26:00,
2013-03-06 10:29:00,27.7,22.6,29.75,West,259,15.0,21.0,81,0.00,,,0.00,Wunderground v.1.15,2013-03-06 15:29:00,
2013-03-06 10:30:00,27.8,22.7,29.75,WNW,286,13.0,20.0,81,0.00,,,0.00,Wunderground v.1.15,2013-03-06 15:30:00,
2013-03-06 10:31:00,27.8,22.7,29.75,West,275,7.0,20.0,81,0.00,,,0.00,Wunderground v.1.15,2013-03-06 15:31:00,
2013-03-06 10:34:00,28.0,22.9,29.75,WNW,286,6.0,20.0,81,0.00,,,0.00,Wunderground v.1.15,2013-03-06 15:34:00,
2013-03-06 10:35:00,28.0,22.9,29.76,WNW,300,14.0,20.0,81,0.00,,,0.00,Wunderground v.1.15,2013-03-06 15:35:00,
2013-03-06 10:36:00,28.1,23.0,29.76,WNW,284,15.0,23.0,81,0.00,,,0.00,Wunderground v.1.15,2013-03-06 15:36:00,
2013-03-06 10:39:00,28.2,23.1,29.76,WNW,282,15.0,23.0,81,0.00,,,0.00,Wunderground v.1.15,2013-03-06 15:39:00,
2013-03-06 10:40:00,28.3,23.2,29.76,WNW,289,15.0,15.0,81,0.00,,,0.00,Wunderground v.1.15,2013-03-06 15:40:00,
2013-03-06 10:42:00,28.3,22.9,29.76,West,279,11.0,16.0,80,0.00,,,0.00,Wunderground v.1.15,2013-03-06 15:42:00,
2013-03-06 10:45:00,28.4,23.0,29.76,NW,306,10.0,21.0,80,0.00,,,0.00,Wunderground v.1.15,2013-03-06 15:45:00,
2013-03-06 10:46:00,28.5,23.4,29.76,WNW,300,13.0,21.0,81,0.00,,,0.00,Wunderground v.1.15,2013-03-06 15:46:00,
2013-03-06 10:47:00,28.5,23.1,29.76,NNW,331,15.0,21.0,80,0.00,,,0.00,Wunderground v.1.15,2013-03-06 15:47:00,
2013-03-06 10:50:00,28.6,22.9,29.76,WNW,302,13.0,13.0,79,0.00,,,0.00,Wunderground v.1.15,2013-03-06 15:50:00,
2013-03-06 10:51:00,28.6,23.2,29.76,WNW,301,11.0,14.0,80,0.00,,,0.00,Wunderground v.1.15,2013-03-06 15:51:00,
2013-03-06 10:52:00,28.6,22.9,29.76,WNW,299,15.0,16.0,79,0.00,,,0.00,Wunderground v.1.15,2013-03-06 15:52:00,
2013-03-06 10:55:00,28.8,23.4,29.76,WNW,292,11.0,24.0,80,0.00,,,0.00,Wunderground v.1.15,2013-03-06 15:55:00,
2013-03-06 10:56:00,28.8,23.4,29.76,WNW,282,8.0,24.0,80,0.00,,,0.00,Wunderground v.1.15,2013-03-06 15:56:00,
2013-03-06 10:57:00,28.9,23.8,29.76,WNW,286,15.0,24.0,81,0.00,,,0.00,Wunderground v.1.15,2013-03-06 15:57:00,
2013-03-06 11:00:00,29.0,23.3,29.77,WNW,295,10.0,13.0,79,0.00,,,0.00,Wunderground v.1.15,2013-03-06 16:00:00,
2013-03-06 11:01:00,29.0,23.3,29.76,NW,321,16.0,17.0,79,0.00,,,0.00,Wunderground v.1.15,2013-03-06 16:01:00,
2013-03-06 11:02:00,29.1,23.4,29.77,WNW,286,10.0,17.0,79,0.00,,,0.00,Wunderground v.1.15,2013-03-06 16:02:00,
2013-03-06 11:05:00,29.1,23.4,29.76,WNW,302,16.0,21.0,79,0.00,,,0.00,Wunderground v.1.15,2013-03-06 16:05:00,
2013-03-06 11:06:00,29.1,23.4,29.77,NNW,329,16.0,21.0,79,0.00,,,0.00,Wunderground v.1.15,2013-03-06 16:06:00,
2013-03-06 11:07:00,29.0,23.3,29.76,NW,321,11.0,21.0,79,0.00,,,0.00,Wunderground v.1.15,2013-03-06 16:07:00,
2013-03-06 11:10:00,29.0,23.3,29.77,West,271,10.0,14.0,79,0.00,,,0.00,Wunderground v.1.15,2013-03-06 16:10:00,
2013-03-06 11:11:00,29.0,23.6,29.77,WSW,258,10.0,14.0,80,0.00,,,0.00,Wunderground v.1.15,2013-03-06 16:11:00,
2013-03-06 11:12:00,29.0,23.3,29.77,West,281,13.0,15.0,79,0.00,,,0.00,Wunderground v.1.15,2013-03-06 16:12:00,
2013-03-06 11:15:00,28.9,22.9,29.77,WNW,286,10.0,27.0,78,0.00,,,0.00,Wunderground v.1.15,2013-03-06 16:15:00,
2013-03-06 11:16:00,28.9,23.2,29.77,WNW,291,11.0,27.0,79,0.00,,,0.00,Wunderground v.1.15,2013-03-06 16:16:00,
2013-03-06 11:17:00,28.9,23.2,29.77,West,265,10.0,27.0,79,0.00,,,0.00,Wunderground v.1.15,2013-03-06 16:17:00,
2013-03-06 11:20:00,29.0,23.6,29.77,NW,306,17.0,18.0,80,0.00,,,0.00,Wunderground v.1.15,2013-03-06 16:20:00,
2013-03-06 11:22:00,29.1,23.4,29.78,WNW,301,10.0,22.0,79,0.00,,,0.00,Wunderground v.1.15,2013-03-06 16:22:00,
2013-03-06 11:25:00,29.1,23.7,29.78,WNW,288,12.0,22.0,80,0.00,,,0.00,Wunderground v.1.15,2013-03-06 16:25:00,
2013-03-06 11:27:00,29.1,23.7,29.78,WNW,296,9.0,22.0,80,0.00,,,0.00,Wunderground v.1.15,2013-03-06 16:27:00,
2013-03-06 11:31:00,29.2,23.8,29.79,NW,317,5.0,15.0,80,0.00,,,0.00,Wunderground v.1.15,2013-03-06 16:31:00,
2013-03-06 11:32:00,29.2,23.8,29.79,WNW,299,6.0,15.0,80,0.00,,,0.00,Wunderground v.1.15,2013-03-06 16:32:00,
2013-03-06 11:33:00,29.2,23.8,29.79,NW,310,10.0,15.0,80,0.00,,,0.00,Wunderground v.1.15,2013-03-06 16:33:00,
2013-03-06 11:36:00,29.2,23.8,29.79,WNW,300,10.0,19.0,80,0.00,,,0.00,Wunderground v.1.15,2013-03-06 16:36:00,
2013-03-06 11:38:00,29.3,23.6,29.80,NW,311,14.0,19.0,79,0.00,,,0.00,Wunderground v.1.15,2013-03-06 16:38:00,
2013-03-06 11:42:00,29.4,24.0,29.79,WNW,288,20.0,20.0,80,0.00,,,0.00,Wunderground v.1.15,2013-03-06 16:42:00,
2013-03-06 11:43:00,29.4,24.0,29.80,WNW,300,14.0,20.0,80,0.00,,,0.00,Wunderground v.1.15,2013-03-06 16:43:00,
2013-03-06 11:47:00,29.5,24.1,29.80,NW,305,11.0,20.0,80,0.00,,,0.00,Wunderground v.1.15,2013-03-06 16:47:00,
2013-03-06 11:48:00,29.5,23.8,29.80,North,355,13.0,22.0,79,0.00,,,0.00,Wunderground v.1.15,2013-03-06 16:48:00,
2013-03-06 11:49:00,29.5,23.8,29.80,West,273,15.0,22.0,79,0.00,,,0.00,Wunderground v.1.15,2013-03-06 16:49:00,
2013-03-06 11:52:00,29.7,24.3,29.80,WNW,289,17.0,24.0,80,0.00,,,0.00,Wunderground v.1.15,2013-03-06 16:52:00,
2013-03-06 11:54:00,29.7,24.0,29.81,NNW,342,15.0,24.0,79,0.00,,,0.00,Wunderground v.1.15,2013-03-06 16:54:00,
2013-03-06 11:57:00,29.8,24.1,29.80,West,278,14.0,24.0,79,0.00,,,0.00,Wunderground v.1.15,2013-03-06 16:57:00,
2013-03-06 11:59:00,29.8,24.1,29.80,NW,311,21.0,24.0,79,0.00,,,0.00,Wunderground v.1.15,2013-03-06 16:59:00,
2013-03-06 12:00:00,29.8,24.1,29.80,NNW,332,14.0,18.0,79,0.00,,,0.00,Wunderground v.1.15,2013-03-06 17:00:00,
2013-03-06 12:02:00,29.8,23.8,29.79,NW,318,15.0,26.0,78,0.00,,,0.00,Wunderground v.1.15,2013-03-06 17:02:00,
2013-03-06 12:04:00,29.8,23.8,29.80,West,269,15.0,26.0,78,0.00,,,0.00,Wunderground v.1.15,2013-03-06 17:04:00,
2013-03-06 12:05:00,29.8,23.8,29.80,East,92,10.0,26.0,78,0.00,,,0.00,Wunderground v.1.15,2013-03-06 17:05:00,
2013-03-06 12:07:00,29.8,24.1,29.80,NNW,340,17.0,26.0,79,0.00,,,0.00,Wunderground v.1.15,2013-03-06 17:07:00,
2013-03-06 12:09:00,29.9,24.2,29.80,WNW,293,10.0,26.0,79,0.00,,,0.00,Wunderground v.1.15,2013-03-06 17:09:00,
2013-03-06 12:10:00,29.9,24.2,29.80,WNW,293,16.0,17.0,79,0.00,,,0.00,Wunderground v.1.15,2013-03-06 17:10:00,
2013-03-06 12:12:00,30.1,24.4,29.80,NNW,329,18.0,21.0,79,0.00,,,0.00,Wunderground v.1.15,2013-03-06 17:12:00,
2013-03-06 12:14:00,30.1,24.1,29.80,South,175,7.0,21.0,78,0.00,,,0.00,Wunderground v.1.15,2013-03-06 17:14:00,
2013-03-06 12:15:00,30.1,24.0,29.80,NW,312,10.0,21.0,78,0.00,,,0.00,weatherlink.com 1.10,2013-03-06 17:15:00,
2013-03-06 12:16:00,30.2,24.2,29.80,WNW,300,10.0,21.0,78,0.00,,,0.00,Wunderground v.1.15,2013-03-06 17:16:00,
2013-03-06 12:17:00,30.1,23.8,29.81,NNW,329,14.0,21.0,77,0.00,,,0.00,Wunderground v.1.15,2013-03-06 17:17:00,
2013-03-06 12:19:00,30.1,24.1,29.80,NW,309,7.0,23.0,78,0.00,,,0.00,Wunderground v.1.15,2013-03-06 17:19:00,
2013-03-06 12:20:00,30.1,24.1,29.81,WNW,294,10.0,12.0,78,0.00,,,0.00,Wunderground v.1.15,2013-03-06 17:20:00,
2013-03-06 12:21:00,30.1,24.1,29.81,North,360,10.0,16.0,78,0.00,,,0.00,Wunderground v.1.15,2013-03-06 17:21:00,
2013-03-06 12:22:00,30.1,24.1,29.81,WNW,298,14.0,16.0,78,0.00,,,0.00,Wunderground v.1.15,2013-03-06 17:22:00,
2013-03-06 12:24:00,30.1,24.1,29.81,NW,306,17.0,19.0,78,0.00,,,0.00,Wunderground v.1.15,2013-03-06 17:24:00,
2013-03-06 12:26:00,30.1,24.1,29.81,NW,317,14.0,19.0,78,0.00,,,0.00,Wunderground v.1.15,2013-03-06 17:26:00,
2013-03-06 12:27:00,30.1,24.1,29.81,NW,306,11.0,24.0,78,0.00,,,0.00,Wunderground v.1.15,2013-03-06 17:27:00,
2013-03-06 12:29:00,30.0,24.0,29.81,NNE,23,9.0,24.0,78,0.00,,,0.00,Wunderground v.1.15,2013-03-06 17:29:00,
2013-03-06 12:31:00,30.0,24.0,29.81,North,351,9.0,14.0,78,0.00,,,0.00,Wunderground v.1.15,2013-03-06 17:31:00,
2013-03-06 12:32:00,30.0,24.0,29.81,NW,305,10.0,14.0,78,0.00,,,0.00,Wunderground v.1.15,2013-03-06 17:32:00,
2013-03-06 12:35:00,30.1,24.1,29.81,WNW,288,6.0,14.0,78,0.00,,,0.00,Wunderground v.1.15,2013-03-06 17:35:00,
2013-03-06 12:37:00,30.2,24.5,29.81,WNW,296,16.0,16.0,79,0.00,,,0.00,Wunderground v.1.15,2013-03-06 17:37:00,
2013-03-06 12:38:00,30.2,24.5,29.80,West,278,11.0,24.0,79,0.00,,,0.00,Wunderground v.1.15,2013-03-06 17:38:00,
2013-03-06 12:40:00,30.3,24.3,29.80,West,271,12.0,12.0,78,0.00,,,0.00,Wunderground v.1.15,2013-03-06 17:40:00,
2013-03-06 12:42:00,30.5,24.5,29.80,NNW,336,15.0,27.0,78,0.00,,,0.00,Wunderground v.1.15,2013-03-06 17:42:00,
2013-03-06 12:43:00,30.5,24.8,29.80,NNW,332,10.0,27.0,79,0.00,,,0.00,Wunderground v.1.15,2013-03-06 17:43:00,
2013-03-06 12:45:00,30.6,24.9,29.80,NNW,330,11.0,27.0,79,0.00,,,0.00,Wunderground v.1.15,2013-03-06 17:45:00,
2013-03-06 12:47:00,30.7,24.7,29.81,WNW,301,20.0,27.0,78,0.00,,,0.00,Wunderground v.1.15,2013-03-06 17:47:00,
2013-03-06 12:48:00,30.7,24.7,29.81,WNW,294,17.0,27.0,78,0.00,,,0.00,Wunderground v.1.15,2013-03-06 17:48:00,
2013-03-06 12:50:00,30.7,24.7,29.80,West,265,13.0,21.0,78,0.00,,,0.00,Wunderground v.1.15,2013-03-06 17:50:00,
2013-03-06 12:52:00,30.9,25.2,29.81,WNW,297,11.0,21.0,79,0.00,,,0.00,Wunderground v.1.15,2013-03-06 17:52:00,
2013-03-06 12:53:00,31.0,25.2,29.81,North,5,8.0,21.0,79,0.00,,,0.00,Wunderground v.1.15,2013-03-06 17:53:00,
2013-03-06 12:55:00,31.0,24.9,29.81,West,271,9.0,21.0,78,0.00,,,0.00,Wunderground v.1.15,2013-03-06 17:55:00,
2013-03-06 12:57:00,30.9,24.5,29.81,NNW,329,17.0,26.0,77,0.00,,,0.00,Wunderground v.1.15,2013-03-06 17:57:00,
2013-03-06 12:58:00,30.8,24.4,29.81,NW,316,13.0,26.0,77,0.00,,,0.00,Wunderground v.1.15,2013-03-06 17:58:00,
2013-03-06 12:59:00,30.8,24.7,29.81,West,261,9.0,26.0,78,0.00,,,0.00,Wunderground v.1.15,2013-03-06 17:59:00,
2013-03-06 13:01:00,30.8,24.7,29.81,West,271,13.0,20.0,78,0.00,,,0.00,Wunderground v.1.15,2013-03-06 18:01:00,
2013-03-06 13:03:00,30.7,24.3,29.81,NNW,329,21.0,21.0,77,0.00,,,0.00,Wunderground v.1.15,2013-03-06 18:03:00,
2013-03-06 13:04:00,30.6,24.2,29.81,WNW,295,21.0,23.0,77,0.00,,,0.00,Wunderground v.1.15,2013-03-06 18:04:00,
2013-03-06 13:06:00,30.5,24.5,29.81,NNW,331,13.0,23.0,78,0.00,,,0.00,Wunderground v.1.15,2013-03-06 18:06:00,
2013-03-06 13:08:00,30.4,24.4,29.81,NW,307,10.0,24.0,78,0.00,,,0.00,Wunderground v.1.15,2013-03-06 18:08:00,
2013-03-06 13:09:00,30.4,24.4,29.81,NW,321,7.0,24.0,78,0.00,,,0.00,Wunderground v.1.15,2013-03-06 18:09:00,
2013-03-06 13:11:00,30.6,24.9,29.81,West,279,12.0,26.0,79,0.00,,,0.00,Wunderground v.1.15,2013-03-06 18:11:00,
2013-03-06 13:13:00,30.6,24.9,29.81,NW,326,18.0,26.0,79,0.00,,,0.00,Wunderground v.1.15,2013-03-06 18:13:00,
2013-03-06 13:14:00,30.6,24.9,29.81,NW,313,9.0,26.0,79,0.00,,,0.00,Wunderground v.1.15,2013-03-06 18:14:00,
2013-03-06 13:16:00,30.7,25.0,29.82,NW,320,7.0,26.0,79,0.00,,,0.00,Wunderground v.1.15,2013-03-06 18:16:00,
2013-03-06 13:18:00,30.7,24.7,29.81,NW,317,9.0,26.0,78,0.00,,,0.00,Wunderground v.1.15,2013-03-06 18:18:00,
2013-03-06 13:19:00,30.6,24.6,29.81,NW,321,12.0,26.0,78,0.00,,,0.00,Wunderground v.1.15,2013-03-06 18:19:00,
2013-03-06 13:22:00,30.6,24.9,29.81,West,265,17.0,22.0,79,0.00,,,0.00,Wunderground v.1.15,2013-03-06 18:22:00,
2013-03-06 13:23:00,30.6,24.6,29.81,WNW,300,24.0,27.0,78,0.00,,,0.00,Wunderground v.1.15,2013-03-06 18:23:00,
2013-03-06 13:24:00,30.5,24.1,29.81,WNW,301,16.0,27.0,77,0.00,,,0.00,Wunderground v.1.15,2013-03-06 18:24:00,
2013-03-06 13:25:00,30.6,24.6,29.81,NW,306,14.0,27.0,78,0.00,,,0.00,Wunderground v.1.15,2013-03-06 18:25:00,
2013-03-06 13:27:00,30.7,25.0,29.81,NW,307,16.0,27.0,79,0.00,,,0.00,Wunderground v.1.15,2013-03-06 18:27:00,
2013-03-06 13:28:00,30.8,25.1,29.81,NNW,338,10.0,27.0,79,0.00,,,0.00,Wunderground v.1.15,2013-03-06 18:28:00,
2013-03-06 13:30:00,30.8,25.1,29.81,WNW,291,7.0,15.0,79,0.00,,,0.00,Wunderground v.1.15,2013-03-06 18:30:00,
2013-03-06 13:33:00,30.8,25.1,29.81,WNW,286,17.0,26.0,79,0.00,,,0.00,Wunderground v.1.15,2013-03-06 18:33:00,
2013-03-06 13:34:00,30.7,25.0,29.81,WNW,298,15.0,26.0,79,0.00,,,0.00,Wunderground v.1.15,2013-03-06 18:34:00,
2013-03-06 13:35:00,30.7,25.0,29.81,NW,324,15.0,26.0,79,0.00,,,0.00,Wunderground v.1.15,2013-03-06 18:35:00,
2013-03-06 13:38:00,30.7,25.0,29.82,West,275,7.0,26.0,79,0.00,,,0.00,Wunderground v.1.15,2013-03-06 18:38:00,
2013-03-06 13:39:00,30.7,25.0,29.82,WSW,246,12.0,26.0,79,0.00,,,0.00,Wunderground v.1.15,2013-03-06 18:39:00,
2013-03-06 13:40:00,30.7,25.0,29.82,West,267,15.0,15.0,79,0.00,,,0.00,Wunderground v.1.15,2013-03-06 18:40:00,
2013-03-06 13:41:00,30.7,25.3,29.82,WNW,290,5.0,15.0,80,0.00,,,0.00,Wunderground v.1.15,2013-03-06 18:41:00,
2013-03-06 13:44:00,30.6,24.9,29.82,NW,326,18.0,20.0,79,0.00,,,0.00,Wunderground v.1.15,2013-03-06 18:44:00,
2013-03-06 13:45:00,30.5,24.5,29.82,North,360,14.0,20.0,78,0.00,,,0.00,Wunderground v.1.15,2013-03-06 18:45:00,
2013-03-06 13:46:00,30.5,24.8,29.82,NW,309,10.0,20.0,79,0.00,,,0.00,Wunderground v.1.15,2013-03-06 18:46:00,
2013-03-06 13:49:00,30.6,24.9,29.82,NW,306,8.0,27.0,79,0.00,,,0.00,Wunderground v.1.15,2013-03-06 18:49:00,
2013-03-06 13:50:00,30.6,25.2,29.82,WNW,301,12.0,14.0,80,0.00,,,0.00,Wunderground v.1.15,2013-03-06 18:50:00,
2013-03-06 13:52:00,30.7,25.3,29.83,NW,308,8.0,15.0,80,0.00,,,0.00,Wunderground v.1.15,2013-03-06 18:52:00,
2013-03-06 13:54:00,30.7,25.0,29.83,NW,319,8.0,17.0,79,0.00,,,0.00,Wunderground v.1.15,2013-03-06 18:54:00,
2013-03-06 13:55:00,30.7,25.3,29.82,NW,320,14.0,17.0,80,0.00,,,0.00,Wunderground v.1.15,2013-03-06 18:55:00,
2013-03-06 13:57:00,30.6,24.9,29.83,NW,323,15.0,21.0,79,0.00,,,0.00,Wunderground v.1.15,2013-03-06 18:57:00,
2013-03-06 13:59:00,30.6,25.2,29.83,NW,306,10.0,21.0,80,0.00,,,0.00,Wunderground v.1.15,2013-03-06 18:59:00,
2013-03-06 14:01:00,30.6,25.2,29.83,North,349,13.0,13.0,80,0.00,,,0.00,Wunderground v.1.15,2013-03-06 19:01:00,
2013-03-06 14:02:00,30.5,25.1,29.83,WNW,289,6.0,17.0,80,0.00,,,0.00,Wunderground v.1.15,2013-03-06 19:02:00,
2013-03-06 14:04:00,30.5,25.1,29.83,WNW,290,15.0,19.0,80,0.00,,,0.00,Wunderground v.1.15,2013-03-06 19:04:00,
2013-03-06 14:06:00,30.5,24.8,29.83,WNW,303,16.0,21.0,79,0.00,,,0.00,Wunderground v.1.15,2013-03-06 19:06:00,
2013-03-06 14:07:00,30.4,25.0,29.84,West,277,9.0,21.0,80,0.00,,,0.00,Wunderground v.1.15,2013-03-06 19:07:00,
2013-03-06 14:10:00,30.3,24.9,29.84,NW,317,10.0,13.0,80,0.00,,,0.00,Wunderground v.1.15,2013-03-06 19:10:00,
2013-03-06 14:11:00,30.3,25.2,29.84,WNW,299,16.0,16.0,81,0.00,,,0.00,Wunderground v.1.15,2013-03-06 19:11:00,
2013-03-06 14:12:00,30.3,24.9,29.84,NW,306,16.0,18.0,80,0.00,,,0.00,Wunderground v.1.15,2013-03-06 19:12:00,
2013-03-06 14:14:00,30.2,24.8,29.84,NNW,330,14.0,20.0,80,0.00,,,0.00,Wunderground v.1.15,2013-03-06 19:14:00,
2013-03-06 14:15:00,30.1,24.7,29.84,WNW,298,13.0,20.0,80,0.00,,,0.00,Wunderground v.1.15,2013-03-06 19:15:00,
2013-03-06 14:17:00,29.9,24.5,29.84,NW,309,11.0,21.0,80,0.00,,,0.00,Wunderground v.1.15,2013-03-06 19:17:00,
2013-03-06 14:19:00,29.9,24.8,29.85,WNW,302,11.0,25.0,81,0.00,,,0.00,Wunderground v.1.15,2013-03-06 19:19:00,
2013-03-06 14:20:00,29.8,24.7,29.84,NNW,329,5.0,13.0,81,0.00,,,0.00,Wunderground v.1.15,2013-03-06 19:20:00,
2013-03-06 14:22:00,29.8,24.7,29.84,West,279,9.0,14.0,81,0.00,,,0.00,Wunderground v.1.15,2013-03-06 19:22:00,
2013-03-06 14:23:00,29.7,24.6,29.84,WNW,301,14.0,21.0,81,0.00,,,0.00,Wunderground v.1.15,2013-03-06 19:23:00,
2013-03-06 14:24:00,29.7,24.6,29.85,NNW,327,12.0,21.0,81,0.00,,,0.00,Wunderground v.1.15,2013-03-06 19:24:00,
2013-03-06 14:25:00,29.7,24.6,29.84,NW,313,11.0,21.0,81,0.00,,,0.00,Wunderground v.1.15,2013-03-06 19:25:00,
2013-03-06 14:27:00,29.7,24.9,29.85,WNW,283,9.0,21.0,82,0.00,,,0.00,Wunderground v.1.15,2013-03-06 19:27:00,
2013-03-06 14:28:00,29.7,24.9,29.84,WNW,300,20.0,21.0,82,0.00,,,0.00,Wunderground v.1.15,2013-03-06 19:28:00,
2013-03-06 14:30:00,29.7,24.9,29.85,WNW,285,13.0,13.0,82,0.00,,,0.00,Wunderground v.1.15,2013-03-06 19:30:00,
2013-03-06 14:31:00,29.7,24.9,29.85,NW,304,16.0,17.0,82,0.00,,,0.00,Wunderground v.1.15,2013-03-06 19:31:00,
2013-03-06 14:32:00,29.7,24.9,29.85,WNW,299,10.0,19.0,82,0.00,,,0.00,Wunderground v.1.15,2013-03-06 19:32:00,
2013-03-06 14:33:00,29.7,24.6,29.85,West,275,15.0,21.0,81,0.00,,,0.00,Wunderground v.1.15,2013-03-06 19:33:00,
2013-03-06 14:35:00,29.7,24.6,29.85,NNW,344,8.0,23.0,81,0.00,,,0.00,Wunderground v.1.15,2013-03-06 19:35:00,
2013-03-06 14:37:00,29.7,24.9,29.85,NNW,333,10.0,23.0,82,0.00,,,0.00,Wunderground v.1.15,2013-03-06 19:37:00,
2013-03-06 14:38:00,29.7,24.9,29.85,NNW,329,7.0,24.0,82,0.00,,,0.00,Wunderground v.1.15,2013-03-06 19:38:00,
2013-03-06 14:40:00,29.7,24.9,29.85,NW,304,18.0,22.0,82,0.00,,,0.00,Wunderground v.1.15,2013-03-06 19:40:00,
2013-03-06 14:42:00,29.7,24.9,29.85,NNW,335,16.0,23.0,82,0.00,,,0.00,Wunderground v.1.15,2013-03-06 19:42:00,
2013-03-06 14:43:00,29.7,24.9,29.85,WNW,300,13.0,23.0,82,0.00,,,0.00,Wunderground v.1.15,2013-03-06 19:43:00,
2013-03-06 14:44:00,29.8,25.0,29.85,West,267,11.0,23.0,82,0.00,,,0.00,Wunderground v.1.15,2013-03-06 19:44:00,
2013-03-06 14:45:00,29.8,25.0,29.85,WNW,300,5.0,28.0,82,0.00,,,0.00,Wunderground v.1.15,2013-03-06 19:45:00,
2013-03-06 14:47:00,29.8,25.0,29.85,NNW,335,10.0,28.0,82,0.00,,,0.00,Wunderground v.1.15,2013-03-06 19:47:00,
2013-03-06 14:48:00,29.8,25.0,29.86,North,349,16.0,28.0,82,0.00,,,0.00,Wunderground v.1.15,2013-03-06 19:48:00,
2013-03-06 14:49:00,29.8,25.0,29.86,WNW,296,14.0,28.0,82,0.00,,,0.00,Wunderground v.1.15,2013-03-06 19:49:00,
2013-03-06 14:50:00,29.8,25.0,29.86,West,269,5.0,14.0,82,0.00,,,0.00,Wunderground v.1.15,2013-03-06 19:50:00,
2013-03-06 14:52:00,29.8,25.0,29.86,West,263,12.0,17.0,82,0.00,,,0.00,Wunderground v.1.15,2013-03-06 19:52:00,
2013-03-06 14:53:00,29.8,25.0,29.86,NW,307,9.0,17.0,82,0.00,,,0.00,Wunderground v.1.15,2013-03-06 19:53:00,
2013-03-06 14:55:00,29.9,25.1,29.86,WNW,288,11.0,17.0,82,0.00,,,0.00,Wunderground v.1.15,2013-03-06 19:55:00,
2013-03-06 14:56:00,29.9,25.1,29.87,WNW,301,6.0,17.0,82,0.00,,,0.00,Wunderground v.1.15,2013-03-06 19:56:00,
2013-03-06 14:57:00,29.9,25.1,29.87,WNW,296,6.0,17.0,82,0.00,,,0.00,Wunderground v.1.15,2013-03-06 19:57:00,
2013-03-06 14:58:00,29.9,25.1,29.87,WNW,299,10.0,17.0,82,0.00,,,0.00,Wunderground v.1.15,2013-03-06 19:58:00,
2013-03-06 15:00:00,29.9,25.1,29.87,NNW,342,8.0,9.0,82,0.00,,,0.00,Wunderground v.1.15,2013-03-06 20:00:00,
2013-03-06 15:01:00,29.9,25.1,29.87,NW,304,19.0,21.0,82,0.00,,,0.00,Wunderground v.1.15,2013-03-06 20:01:00,
2013-03-06 15:02:00,29.8,25.0,29.87,NW,311,15.0,21.0,82,0.00,,,0.00,Wunderground v.1.15,2013-03-06 20:02:00,
2013-03-06 15:03:00,29.8,25.0,29.88,West,279,15.0,21.0,82,0.00,,,0.00,Wunderground v.1.15,2013-03-06 20:03:00,
2013-03-06 15:05:00,29.8,25.0,29.88,NW,317,7.0,21.0,82,0.00,,,0.00,Wunderground v.1.15,2013-03-06 20:05:00,
2013-03-06 15:06:00,29.8,25.0,29.88,NW,317,14.0,21.0,82,0.00,,,0.00,Wunderground v.1.15,2013-03-06 20:06:00,
2013-03-06 15:07:00,29.7,24.9,29.88,WNW,286,19.0,21.0,82,0.00,,,0.00,Wunderground v.1.15,2013-03-06 20:07:00,
2013-03-06 15:08:00,29.7,24.9,29.88,West,265,8.0,21.0,82,0.00,,,0.00,Wunderground v.1.15,2013-03-06 20:08:00,
2013-03-06 15:10:00,29.7,25.2,29.88,NW,304,13.0,13.0,83,0.00,,,0.00,Wunderground v.1.15,2013-03-06 20:10:00,
2013-03-06 15:11:00,29.7,24.9,29.88,WNW,298,18.0,18.0,82,0.00,,,0.00,Wunderground v.1.15,2013-03-06 20:11:00,
2013-03-06 15:12:00,29.7,25.2,29.88,WNW,293,15.0,18.0,83,0.00,,,0.00,Wunderground v.1.15,2013-03-06 20:12:00,
2013-03-06 15:14:00,29.7,25.2,29.88,WNW,302,18.0,22.0,83,0.00,,,0.00,Wunderground v.1.15,2013-03-06 20:14:00,
2013-03-06 15:15:00,29.6,25.1,29.88,WNW,293,10.0,22.0,83,0.00,,,0.00,Wunderground v.1.15,2013-03-06 20:15:00,
2013-03-06 15:17:00,29.6,25.1,29.88,NW,315,12.0,22.0,83,0.00,,,0.00,Wunderground v.1.15,2013-03-06 20:17:00,
2013-03-06 15:18:00,29.6,25.1,29.88,NW,321,14.0,22.0,83,0.00,,,0.00,Wunderground v.1.15,2013-03-06 20:18:00,
2013-03-06 15:19:00,29.6,25.1,29.88,NNW,330,10.0,22.0,83,0.00,,,0.00,Wunderground v.1.15,2013-03-06 20:19:00,
2013-03-06 15:20:00,29.6,25.1,29.88,NW,323,16.0,19.0,83,0.00,,,0.00,Wunderground v.1.15,2013-03-06 20:20:00,
2013-03-06 15:22:00,29.6,25.1,29.88,West,265,14.0,23.0,83,0.00,,,0.00,Wunderground v.1.15,2013-03-06 20:22:00,
2013-03-06 15:23:00,29.6,25.1,29.88,WNW,292,13.0,23.0,83,0.00,,,0.00,Wunderground v.1.15,2013-03-06 20:23:00,
2013-03-06 15:24:00,29.6,25.1,29.87,NW,311,10.0,23.0,83,0.00,,,0.00,Wunderground v.1.15,2013-03-06 20:24:00,
2013-03-06 15:26:00,29.6,25.1,29.87,WNW,298,21.0,23.0,83,0.00,,,0.00,Wunderground v.1.15,2013-03-06 20:26:00,
2013-03-06 15:27:00,29.6,25.1,29.87,NW,314,11.0,23.0,83,0.00,,,0.00,Wunderground v.1.15,2013-03-06 20:27:00,
2013-03-06 15:28:00,29.6,25.1,29.87,NW,313,18.0,23.0,83,0.00,,,0.00,Wunderground v.1.15,2013-03-06 20:28:00,
2013-03-06 15:30:00,29.6,25.1,29.87,WNW,292,19.0,20.0,83,0.00,,,0.00,Wunderground v.1.15,2013-03-06 20:30:00,
2013-03-06 15:31:00,29.6,25.1,29.87,WNW,294,19.0,26.0,83,0.00,,,0.00,Wunderground v.1.15,2013-03-06 20:31:00,
2013-03-06 15:32:00,29.7,25.2,29.87,NNW,346,15.0,28.0,83,0.00,,,0.00,Wunderground v.1.15,2013-03-06 20:32:00,
2013-03-06 15:33:00,29.7,25.2,29.87,WNW,285,17.0,28.0,83,0.00,,,0.00,Wunderground v.1.15,2013-03-06 20:33:00,
2013-03-06 15:35:00,29.7,25.2,29.88,West,279,17.0,28.0,83,0.00,,,0.00,Wunderground v.1.15,2013-03-06 20:35:00,
2013-03-06 15:36:00,29.7,25.2,29.88,WNW,296,16.0,31.0,83,0.00,,,0.00,Wunderground v.1.15,2013-03-06 20:36:00,
2013-03-06 15:37:00,29.7,25.2,29.88,NW,319,16.0,31.0,83,0.00,,,0.00,Wunderground v.1.15,2013-03-06 20:37:00,
2013-03-06 15:39:00,29.6,25.1,29.89,NNW,339,12.0,31.0,83,0.00,,,0.00,Wunderground v.1.15,2013-03-06 20:39:00,
2013-03-06 15:40:00,29.6,25.1,29.89,NW,304,24.0,24.0,83,0.00,,,0.00,Wunderground v.1.15,2013-03-06 20:40:00,
2013-03-06 15:42:00,29.6,25.1,29.89,NW,311,12.0,24.0,83,0.00,,,0.00,Wunderground v.1.15,2013-03-06 20:42:00,
2013-03-06 15:44:00,29.5,25.3,29.90,WNW,292,16.0,24.0,84,0.00,,,0.00,Wunderground v.1.15,2013-03-06 20:44:00,
2013-03-06 15:46:00,29.5,25.0,29.90,NW,314,13.0,28.0,83,0.00,,,0.00,Wunderground v.1.15,2013-03-06 20:46:00,
2013-03-06 15:47:00,29.5,25.0,29.90,NW,318,10.0,28.0,83,0.00,,,0.00,Wunderground v.1.15,2013-03-06 20:47:00,
2013-03-06 15:48:00,29.5,25.0,29.90,NW,315,12.0,28.0,83,0.00,,,0.00,Wunderground v.1.15,2013-03-06 20:48:00,
2013-03-06 15:49:00,29.5,25.0,29.90,NNW,336,10.0,28.0,83,0.00,,,0.00,Wunderground v.1.15,2013-03-06 20:49:00,
2013-03-06 15:51:00,29.5,25.3,29.90,WNW,303,23.0,23.0,84,0.00,,,0.00,Wunderground v.1.15,2013-03-06 20:51:00,
2013-03-06 15:52:00,29.5,25.0,29.91,WNW,293,5.0,23.0,83,0.00,,,0.00,Wunderground v.1.15,2013-03-06 20:52:00,
2013-03-06 15:53:00,29.6,25.1,29.90,NW,309,10.0,24.0,83,0.00,,,0.00,Wunderground v.1.15,2013-03-06 20:53:00,
2013-03-06 15:55:00,29.6,25.1,29.90,NW,317,11.0,24.0,83,0.00,,,0.00,Wunderground v.1.15,2013-03-06 20:55:00,
2013-03-06 15:56:00,29.6,25.4,29.90,NW,325,12.0,24.0,84,0.00,,,0.00,Wunderground v.1.15,2013-03-06 20:56:00,
2013-03-06 15:57:00,29.7,25.5,29.91,WNW,292,19.0,24.0,84,0.00,,,0.00,Wunderground v.1.15,2013-03-06 20:57:00,
2013-03-06 15:59:00,29.9,25.4,29.90,West,272,5.0,24.0,83,0.00,,,0.00,Wunderground v.1.15,2013-03-06 20:59:00,
2013-03-06 16:00:00,30.0,25.5,29.90,NW,319,16.0,16.0,83,0.00,,,0.00,Wunderground v.1.15,2013-03-06 21:00:00,
2013-03-06 16:01:00,30.0,25.5,29.90,NW,317,13.0,20.0,83,0.00,,,0.00,Wunderground v.1.15,2013-03-06 21:01:00,
2013-03-06 16:02:00,30.1,25.6,29.90,NNW,345,19.0,23.0,83,0.00,,,0.00,Wunderground v.1.15,2013-03-06 21:02:00,
2013-03-06 16:05:00,30.1,25.3,29.90,NW,309,14.0,23.0,82,0.00,,,0.00,Wunderground v.1.15,2013-03-06 21:05:00,
2013-03-06 16:06:00,30.1,25.6,29.90,NNW,335,15.0,23.0,83,0.00,,,0.00,Wunderground v.1.15,2013-03-06 21:06:00,
2013-03-06 16:07:00,30.2,25.7,29.90,NW,314,14.0,23.0,83,0.00,,,0.00,Wunderground v.1.15,2013-03-06 21:07:00,
2013-03-06 16:10:00,30.2,25.7,29.91,NW,311,11.0,13.0,83,0.00,,,0.00,Wunderground v.1.15,2013-03-06 21:10:00,
2013-03-06 16:11:00,30.3,25.5,29.91,WNW,297,17.0,18.0,82,0.00,,,0.00,Wunderground v.1.15,2013-03-06 21:11:00,
2013-03-06 16:12:00,30.3,25.5,29.91,NNW,338,11.0,26.0,82,0.00,,,0.00,Wunderground v.1.15,2013-03-06 21:12:00,
2013-03-06 16:16:00,30.2,25.4,29.92,WNW,298,9.0,27.0,82,0.00,,,0.00,Wunderground v.1.15,2013-03-06 21:16:00,
2013-03-06 16:17:00,30.1,25.3,29.92,WNW,282,23.0,27.0,82,0.00,,,0.00,Wunderground v.1.15,2013-03-06 21:17:00,
2013-03-06 16:18:00,30.1,25.3,29.92,NW,321,6.0,27.0,82,0.00,,,0.00,Wunderground v.1.15,2013-03-06 21:18:00,
2013-03-06 16:21:00,30.1,25.6,29.92,West,281,12.0,14.0,83,0.00,,,0.00,Wunderground v.1.15,2013-03-06 21:21:00,
2013-03-06 16:22:00,30.2,25.4,29.93,NW,319,19.0,21.0,82,0.00,,,0.00,Wunderground v.1.15,2013-03-06 21:22:00,
2013-03-06 16:24:00,30.2,25.4,29.93,NW,307,10.0,21.0,82,0.00,,,0.00,Wunderground v.1.15,2013-03-06 21:24:00,
2013-03-06 16:26:00,30.2,25.4,29.93,NNW,331,6.0,21.0,82,0.00,,,0.00,Wunderground v.1.15,2013-03-06 21:26:00,
2013-03-06 16:27:00,30.2,25.4,29.93,West,280,12.0,21.0,82,0.00,,,0.00,Wunderground v.1.15,2013-03-06 21:27:00,
2013-03-06 16:28:00,30.2,25.4,29.93,WNW,291,10.0,21.0,82,0.00,,,0.00,Wunderground v.1.15,2013-03-06 21:28:00,
2013-03-06 16:29:00,30.3,25.5,29.93,WNW,288,11.0,21.0,82,0.00,,,0.00,Wunderground v.1.15,2013-03-06 21:29:00,
2013-03-06 16:31:00,30.3,25.5,29.93,NW,309,17.0,17.0,82,0.00,,,0.00,Wunderground v.1.15,2013-03-06 21:31:00,
2013-03-06 16:33:00,30.3,25.5,29.93,WNW,288,11.0,22.0,82,0.00,,,0.00,Wunderground v.1.15,2013-03-06 21:33:00,
2013-03-06 16:34:00,30.3,25.5,29.94,WNW,292,12.0,22.0,82,0.00,,,0.00,Wunderground v.1.15,2013-03-06 21:34:00,
2013-03-06 16:36:00,30.4,25.6,29.94,West,279,23.0,25.0,82,0.00,,,0.00,Wunderground v.1.15,2013-03-06 21:36:00,
2013-03-06 16:38:00,30.5,25.7,29.94,NW,315,6.0,25.0,82,0.00,,,0.00,Wunderground v.1.15,2013-03-06 21:38:00,
2013-03-06 16:39:00,30.5,25.7,29.94,NW,311,13.0,25.0,82,0.00,,,0.00,Wunderground v.1.15,2013-03-06 21:39:00,
2013-03-06 16:40:00,30.5,25.7,29.94,WNW,289,22.0,22.0,82,0.00,,,0.00,Wunderground v.1.15,2013-03-06 21:40:00,
2013-03-06 16:41:00,30.5,25.7,29.94,WNW,303,9.0,22.0,82,0.00,,,0.00,Wunderground v.1.15,2013-03-06 21:41:00,
2013-03-06 16:43:00,30.5,25.7,29.94,NW,310,11.0,22.0,82,0.00,,,0.00,Wunderground v.1.15,2013-03-06 21:43:00,
2013-03-06 16:44:00,30.5,25.7,29.94,WNW,302,13.0,22.0,82,0.00,,,0.00,Wunderground v.1.15,2013-03-06 21:44:00,
2013-03-06 16:45:00,30.5,25.7,29.95,WNW,287,14.0,22.0,82,0.00,,,0.00,Wunderground v.1.15,2013-03-06 21:45:00,
2013-03-06 16:47:00,30.5,25.7,29.94,WNW,292,20.0,22.0,82,0.00,,,0.00,Wunderground v.1.15,2013-03-06 21:47:00,
2013-03-06 16:48:00,30.4,25.6,29.95,NW,310,15.0,22.0,82,0.00,,,0.00,Wunderground v.1.15,2013-03-06 21:48:00,
2013-03-06 16:49:00,30.4,25.6,29.95,WNW,294,7.0,22.0,82,0.00,,,0.00,Wunderground v.1.15,2013-03-06 21:49:00,
2013-03-06 16:51:00,30.3,25.5,29.95,NW,322,12.0,20.0,82,0.00,,,0.00,Wunderground v.1.15,2013-03-06 21:51:00,
2013-03-06 16:52:00,30.3,25.5,29.95,West,265,12.0,20.0,82,0.00,,,0.00,Wunderground v.1.15,2013-03-06 21:52:00,
2013-03-06 16:54:00,30.2,25.4,29.95,WNW,294,7.0,20.0,82,0.00,,,0.00,Wunderground v.1.15,2013-03-06 21:54:00,
2013-03-06 16:56:00,30.1,25.3,29.96,West,271,15.0,20.0,82,0.00,,,0.00,Wunderground v.1.15,2013-03-06 21:56:00,
2013-03-06 16:57:00,30.1,25.3,29.96,NW,311,11.0,20.0,82,0.00,,,0.00,Wunderground v.1.15,2013-03-06 21:57:00,
2013-03-06 16:59:00,30.1,25.3,29.96,NW,317,7.0,20.0,82,0.00,,,0.00,Wunderground v.1.15,2013-03-06 21:59:00,
2013-03-06 17:02:00,30.0,25.2,29.96,WNW,301,16.0,21.0,82,0.00,,,0.00,Wunderground v.1.15,2013-03-06 22:02:00,
2013-03-06 17:04:00,29.9,25.1,29.96,NNW,332,14.0,23.0,82,0.00,,,0.00,Wunderground v.1.15,2013-03-06 22:04:00,
2013-03-06 17:07:00,29.9,25.4,29.96,NW,304,10.0,23.0,83,0.00,,,0.00,Wunderground v.1.15,2013-03-06 22:07:00,
2013-03-06 17:09:00,29.8,25.3,29.96,NW,314,17.0,23.0,83,0.00,,,0.00,Wunderground v.1.15,2013-03-06 22:09:00,
2013-03-06 17:10:00,29.8,25.3,29.96,NW,310,9.0,12.0,83,0.00,,,0.00,Wunderground v.1.15,2013-03-06 22:10:00,
2013-03-06 17:12:00,29.8,25.3,29.96,WNW,300,10.0,19.0,83,0.00,,,0.00,Wunderground v.1.15,2013-03-06 22:12:00,
2013-03-06 17:14:00,29.8,25.3,29.96,WNW,303,12.0,19.0,83,0.00,,,0.00,Wunderground v.1.15,2013-03-06 22:14:00,
2013-03-06 17:15:00,29.8,25.3,29.96,NW,315,12.0,20.0,83,0.00,,,0.00,Wunderground v.1.15,2013-03-06 22:15:00,
2013-03-06 17:17:00,29.8,25.3,29.96,NNW,335,10.0,22.0,83,0.00,,,0.00,Wunderground v.1.15,2013-03-06 22:17:00,
2013-03-06 17:18:00,29.8,25.3,29.96,NW,316,8.0,22.0,83,0.00,,,0.00,Wunderground v.1.15,2013-03-06 22:18:00,
2013-03-06 17:20:00,29.7,26.9,29.97,NW,308,12.0,15.0,89,0.00,,,0.00,Wunderground v.1.15,2013-03-06 22:20:00,
2013-03-06 17:22:00,29.7,25.2,29.96,West,280,7.0,15.0,83,0.00,,,0.00,Wunderground v.1.15,2013-03-06 22:22:00,
2013-03-06 17:23:00,29.7,25.2,29.96,WNW,300,7.0,15.0,83,0.00,,,0.00,Wunderground v.1.15,2013-03-06 22:23:00,
2013-03-06 17:25:00,29.7,25.2,29.97,NNW,327,12.0,21.0,83,0.00,,,0.00,Wunderground v.1.15,2013-03-06 22:25:00,
2013-03-06 17:26:00,29.7,25.2,29.97,West,269,7.0,21.0,83,0.00,,,0.00,Wunderground v.1.15,2013-03-06 22:26:00,
2013-03-06 17:28:00,29.7,25.2,29.97,WNW,303,14.0,21.0,83,0.00,,,0.00,Wunderground v.1.15,2013-03-06 22:28:00,
2013-03-06 17:30:00,29.6,25.4,29.97,WNW,294,9.0,14.0,84,0.00,,,0.00,Wunderground v.1.15,2013-03-06 22:30:00,
2013-03-06 17:31:00,29.6,25.4,29.97,NW,319,15.0,17.0,84,0.00,,,0.00,Wunderground v.1.15,2013-03-06 22:31:00,
2013-03-06 17:33:00,29.6,25.4,29.97,WNW,300,10.0,21.0,84,0.00,,,0.00,Wunderground v.1.15,2013-03-06 22:33:00,
2013-03-06 17:36:00,29.6,25.1,29.97,WNW,286,10.0,21.0,83,0.00,,,0.00,Wunderground v.1.15,2013-03-06 22:36:00,
2013-03-06 17:38:00,29.6,25.1,29.97,WNW,286,13.0,21.0,83,0.00,,,0.00,Wunderground v.1.15,2013-03-06 22:38:00,
2013-03-06 17:41:00,29.6,25.1,29.97,WNW,292,11.0,18.0,83,0.00,,,0.00,Wunderground v.1.15,2013-03-06 22:41:00,
2013-03-06 17:42:00,29.6,25.1,29.98,NW,304,12.0,20.0,83,0.00,,,0.00,Wunderground v.1.15,2013-03-06 22:42:00,
2013-03-06 17:43:00,29.6,25.1,29.98,WNW,302,12.0,20.0,83,0.00,,,0.00,Wunderground v.1.15,2013-03-06 22:43:00,
2013-03-06 17:47:00,29.6,25.4,29.98,WNW,302,12.0,23.0,84,0.00,,,0.00,Wunderground v.1.15,2013-03-06 22:47:00,
2013-03-06 17:48:00,29.6,25.4,29.99,WNW,302,5.0,23.0,84,0.00,,,0.00,Wunderground v.1.15,2013-03-06 22:48:00,
2013-03-06 17:52:00,29.6,25.4,29.98,ENE,59,8.0,15.0,84,0.00,,,0.00,Wunderground v.1.15,2013-03-06 22:52:00,
2013-03-06 17:53:00,29.6,25.4,29.98,NW,319,5.0,15.0,84,0.00,,,0.00,Wunderground v.1.15,2013-03-06 22:53:00,
2013-03-06 17:54:00,29.6,25.4,29.99,NW,312,6.0,15.0,84,0.00,,,0.00,Wunderground v.1.15,2013-03-06 22:54:00,
2013-03-06 17:58:00,29.6,25.4,30.00,WNW,285,23.0,23.0,84,0.00,,,0.00,Wunderground v.1.15,2013-03-06 22:58:00,
2013-03-06 17:59:00,29.6,25.4,30.00,WNW,282,14.0,23.0,84,0.00,,,0.00,Wunderground v.1.15,2013-03-06 22:59:00,
2013-03-06 18:03:00,29.5,25.3,30.00,WNW,282,11.0,18.0,84,0.00,,,0.00,Wunderground v.1.15,2013-03-06 23:03:00,
2013-03-06 18:04:00,29.5,25.3,30.00,NNW,328,6.0,18.0,84,0.00,,,0.00,Wunderground v.1.15,2013-03-06 23:04:00,
2013-03-06 18:05:00,29.5,25.3,30.00,WNW,285,5.0,18.0,84,0.00,,,0.00,Wunderground v.1.15,2013-03-06 23:05:00,
2013-03-06 18:08:00,29.5,25.3,30.00,West,280,9.0,18.0,84,0.00,,,0.00,Wunderground v.1.15,2013-03-06 23:08:00,
2013-03-06 18:09:00,29.4,25.2,30.01,NNW,337,6.0,18.0,84,0.00,,,0.00,Wunderground v.1.15,2013-03-06 23:09:00,
2013-03-06 18:10:00,29.4,25.2,30.00,NW,313,10.0,10.0,84,0.00,,,0.00,Wunderground v.1.15,2013-03-06 23:10:00,
2013-03-06 18:13:00,29.4,25.2,30.01,NW,326,8.0,15.0,84,0.00,,,0.00,Wunderground v.1.15,2013-03-06 23:13:00,
2013-03-06 18:14:00,29.4,25.2,30.01,NW,304,6.0,15.0,84,0.00,,,0.00,Wunderground v.1.15,2013-03-06 23:14:00,
2013-03-06 18:15:00,29.4,25.2,30.01,NW,319,10.0,15.0,84,0.00,,,0.00,Wunderground v.1.15,2013-03-06 23:15:00,
2013-03-06 18:18:00,29.4,25.2,30.01,NNW,340,5.0,18.0,84,0.00,,,0.00,Wunderground v.1.15,2013-03-06 23:18:00,
2013-03-06 18:20:00,29.4,25.2,30.01,WNW,288,7.0,13.0,84,0.00,,,0.00,Wunderground v.1.15,2013-03-06 23:20:00,
2013-03-06 18:21:00,29.4,25.2,30.01,WNW,288,5.0,14.0,84,0.00,,,0.00,Wunderground v.1.15,2013-03-06 23:21:00,
2013-03-06 18:24:00,29.4,25.2,30.01,WNW,291,8.0,19.0,84,0.00,,,0.00,Wunderground v.1.15,2013-03-06 23:24:00,
2013-03-06 18:25:00,29.4,25.2,30.01,NW,315,12.0,19.0,84,0.00,,,0.00,Wunderground v.1.15,2013-03-06 23:25:00,
2013-03-06 18:27:00,29.4,25.2,30.01,NW,306,9.0,19.0,84,0.00,,,0.00,Wunderground v.1.15,2013-03-06 23:27:00,
2013-03-06 18:29:00,29.4,25.2,30.01,NW,317,11.0,19.0,84,0.00,,,0.00,Wunderground v.1.15,2013-03-06 23:29:00,
2013-03-06 18:30:00,29.4,25.2,30.02,NNW,336,15.0,15.0,84,0.00,,,0.00,Wunderground v.1.15,2013-03-06 23:30:00,
2013-03-06 18:31:00,29.4,25.2,30.02,NNW,340,10.0,15.0,84,0.00,,,0.00,Wunderground v.1.15,2013-03-06 23:31:00,
2013-03-06 18:32:00,29.4,25.2,30.02,WNW,300,10.0,15.0,84,0.00,,,0.00,Wunderground v.1.15,2013-03-06 23:32:00,
2013-03-06 18:35:00,29.3,25.1,30.02,WNW,292,5.0,15.0,84,0.00,,,0.00,Wunderground v.1.15,2013-03-06 23:35:00,
2013-03-06 18:37:00,29.3,25.1,30.02,WNW,300,7.0,15.0,84,0.00,,,0.00,Wunderground v.1.15,2013-03-06 23:37:00,
2013-03-06 18:40:00,29.3,25.1,30.01,NW,306,7.0,12.0,84,0.00,,,0.00,Wunderground v.1.15,2013-03-06 23:40:00,
2013-03-06 18:42:00,29.3,25.1,30.01,West,281,6.0,12.0,84,0.00,,,0.00,Wunderground v.1.15,2013-03-06 23:42:00,
2013-03-06 18:45:00,29.3,25.4,30.02,West,273,7.0,16.0,85,0.00,,,0.00,Wunderground v.1.15,2013-03-06 23:45:00,
2013-03-06 18:47:00,29.3,25.1,30.02,WNW,287,9.0,16.0,84,0.00,,,0.00,Wunderground v.1.15,2013-03-06 23:47:00,
2013-03-06 18:50:00,29.3,25.1,30.02,NW,314,13.0,17.0,84,0.00,,,0.00,Wunderground v.1.15,2013-03-06 23:50:00,
2013-03-06 18:51:00,29.3,25.1,30.02,WNW,296,9.0,17.0,84,0.00,,,0.00,Wunderground v.1.15,2013-03-06 23:51:00,
2013-03-06 18:52:00,29.3,25.4,30.02,NW,306,9.0,17.0,85,0.00,,,0.00,Wunderground v.1.15,2013-03-06 23:52:00,
2013-03-06 18:53:00,29.3,25.4,30.02,NW,307,4.0,17.0,85,0.00,,,0.00,Wunderground v.1.15,2013-03-06 23:53:00,
2013-03-06 18:55:00,29.3,25.4,30.02,WNW,293,4.0,17.0,85,0.00,,,0.00,Wunderground v.1.15,2013-03-06 23:55:00,
2013-03-06 18:56:00,29.3,25.4,30.02,WNW,286,4.0,17.0,85,0.00,,,0.00,Wunderground v.1.15,2013-03-06 23:56:00,
2013-03-06 18:58:00,29.3,25.1,30.02,NW,305,7.0,17.0,84,0.00,,,0.00,Wunderground v.1.15,2013-03-06 23:58:00,
2013-03-06 18:59:00,29.3,25.1,30.02,NW,326,8.0,17.0,84,0.00,,,0.00,Wunderground v.1.15,2013-03-06 23:59:00,
2013-03-06 19:00:00,29.3,25.4,30.03,West,270,10.0,11.0,85,0.00,,,0.00,Wunderground v.1.15,2013-03-07 00:00:00,
2013-03-06 19:01:00,29.3,25.4,30.03,WNW,298,11.0,11.0,85,0.00,,,0.00,Wunderground v.1.15,2013-03-07 00:01:00,
2013-03-06 19:03:00,29.3,25.1,30.03,NW,308,10.0,14.0,84,0.00,,,0.00,Wunderground v.1.15,2013-03-07 00:03:00,
2013-03-06 19:04:00,29.3,25.4,30.03,WNW,299,12.0,19.0,85,0.00,,,0.00,Wunderground v.1.15,2013-03-07 00:04:00,
2013-03-06 19:05:00,29.3,25.1,30.02,NW,315,5.0,19.0,84,0.00,,,0.00,Wunderground v.1.15,2013-03-07 00:05:00,
2013-03-06 19:06:00,29.3,25.1,30.03,WNW,294,7.0,19.0,84,0.00,,,0.00,Wunderground v.1.15,2013-03-07 00:06:00,
2013-03-06 19:08:00,29.3,25.1,30.03,NNW,334,14.0,19.0,84,0.00,,,0.00,Wunderground v.1.15,2013-03-07 00:08:00,
2013-03-06 19:09:00,29.3,25.4,30.03,WNW,300,7.0,19.0,85,0.00,,,0.00,Wunderground v.1.15,2013-03-07 00:09:00,
2013-03-06 19:10:00,29.3,25.4,30.03,WNW,300,8.0,11.0,85,0.00,,,0.00,Wunderground v.1.15,2013-03-07 00:10:00,
2013-03-06 19:11:00,29.3,25.4,30.02,WNW,296,13.0,14.0,85,0.00,,,0.00,Wunderground v.1.15,2013-03-07 00:11:00,
2013-03-06 19:13:00,29.3,25.4,30.02,NW,325,16.0,16.0,85,0.00,,,0.00,Wunderground v.1.15,2013-03-07 00:13:00,
2013-03-06 19:15:00,29.3,25.4,30.02,NW,320,8.0,16.0,85,0.00,,,0.00,Wunderground v.1.15,2013-03-07 00:15:00,
2013-03-06 19:16:00,29.3,25.4,30.02,NW,317,5.0,16.0,85,0.00,,,0.00,Wunderground v.1.15,2013-03-07 00:16:00,
2013-03-06 19:17:00,29.3,25.4,30.02,WNW,297,9.0,16.0,85,0.00,,,0.00,Wunderground v.1.15,2013-03-07 00:17:00,
2013-03-06 19:18:00,29.3,25.4,30.02,WNW,284,9.0,16.0,85,0.00,,,0.00,Wunderground v.1.15,2013-03-07 00:18:00,
2013-03-06 19:20:00,29.3,25.4,30.03,NNE,33,12.0,14.0,85,0.00,,,0.00,Wunderground v.1.15,2013-03-07 00:20:00,
2013-03-06 19:21:00,29.3,25.4,30.03,WNW,299,16.0,16.0,85,0.00,,,0.00,Wunderground v.1.15,2013-03-07 00:21:00,
2013-03-06 19:22:00,29.3,25.4,30.03,West,280,12.0,16.0,85,0.00,,,0.00,Wunderground v.1.15,2013-03-07 00:22:00,
2013-03-06 19:24:00,29.3,25.4,30.03,West,263,10.0,16.0,85,0.00,,,0.00,Wunderground v.1.15,2013-03-07 00:24:00,
2013-03-06 19:25:00,29.3,25.4,30.03,NW,312,9.0,16.0,85,0.00,,,0.00,Wunderground v.1.15,2013-03-07 00:25:00,
2013-03-06 19:27:00,29.3,25.4,30.03,NW,315,6.0,16.0,85,0.00,,,0.00,Wunderground v.1.15,2013-03-07 00:27:00,
2013-03-06 19:29:00,29.3,25.4,30.03,WNW,293,7.0,16.0,85,0.00,,,0.00,Wunderground v.1.15,2013-03-07 00:29:00,
2013-03-06 19:30:00,29.3,25.4,30.03,WNW,294,8.0,8.0,85,0.00,,,0.00,Wunderground v.1.15,2013-03-07 00:30:00,
2013-03-06 19:32:00,29.3,25.4,30.03,NNW,348,8.0,15.0,85,0.00,,,0.00,Wunderground v.1.15,2013-03-07 00:32:00,
2013-03-06 19:35:00,29.3,25.4,30.03,WNW,290,8.0,15.0,85,0.00,,,0.00,Wunderground v.1.15,2013-03-07 00:35:00,
2013-03-06 19:37:00,29.3,25.4,30.03,WNW,296,11.0,15.0,85,0.00,,,0.00,Wunderground v.1.15,2013-03-07 00:37:00,
2013-03-06 19:40:00,29.3,25.4,30.03,West,271,8.0,11.0,85,0.00,,,0.00,Wunderground v.1.15,2013-03-07 00:40:00,
2013-03-06 19:42:00,29.3,25.4,30.03,North,11,6.0,11.0,85,0.00,,,0.00,Wunderground v.1.15,2013-03-07 00:42:00,
2013-03-06 19:43:00,29.3,25.4,30.03,SW,215,6.0,12.0,85,0.00,,,0.00,Wunderground v.1.15,2013-03-07 00:43:00,
2013-03-06 19:45:00,29.3,25.1,30.03,WNW,302,11.0,19.0,84,0.00,,,0.00,Wunderground v.1.15,2013-03-07 00:45:00,
2013-03-06 19:46:00,29.3,25.4,30.03,WNW,288,7.0,19.0,85,0.00,,,0.00,Wunderground v.1.15,2013-03-07 00:46:00,
2013-03-06 19:47:00,29.2,25.3,30.03,NW,310,15.0,19.0,85,0.00,,,0.00,Wunderground v.1.15,2013-03-07 00:47:00,
2013-03-06 19:48:00,29.2,25.3,30.03,WNW,288,6.0,19.0,85,0.00,,,0.00,Wunderground v.1.15,2013-03-07 00:48:00,
2013-03-06 19:51:00,29.3,25.4,30.03,NNW,336,9.0,13.0,85,0.00,,,0.00,Wunderground v.1.15,2013-03-07 00:51:00,
2013-03-06 19:52:00,29.2,25.3,30.03,NW,312,15.0,15.0,85,0.00,,,0.00,Wunderground v.1.15,2013-03-07 00:52:00,
2013-03-06 19:53:00,29.2,25.3,30.03,WNW,298,7.0,15.0,85,0.00,,,0.00,Wunderground v.1.15,2013-03-07 00:53:00,
2013-03-06 19:56:00,29.2,25.3,30.03,WNW,292,11.0,17.0,85,0.00,,,0.00,Wunderground v.1.15,2013-03-07 00:56:00,
2013-03-06 19:57:00,29.2,25.3,30.03,WNW,294,19.0,24.0,85,0.00,,,0.00,Wunderground v.1.15,2013-03-07 00:57:00,
2013-03-06 19:59:00,29.3,25.4,30.02,NW,317,14.0,24.0,85,0.00,,,0.00,Wunderground v.1.15,2013-03-07 00:59:00,
2013-03-06 20:01:00,29.2,25.3,30.02,WNW,302,4.0,14.0,85,0.00,,,0.00,Wunderground v.1.15,2013-03-07 01:01:00,
2013-03-06 20:02:00,29.2,25.3,30.02,WNW,285,14.0,14.0,85,0.00,,,0.00,Wunderground v.1.15,2013-03-07 01:02:00,
2013-03-06 20:04:00,29.2,25.3,30.02,NW,311,16.0,18.0,85,0.00,,,0.00,Wunderground v.1.15,2013-03-07 01:04:00,
2013-03-06 20:06:00,29.2,25.3,30.02,NW,306,14.0,18.0,85,0.00,,,0.00,Wunderground v.1.15,2013-03-07 01:06:00,
2013-03-06 20:07:00,29.2,25.3,30.02,WNW,302,13.0,18.0,85,0.00,,,0.00,Wunderground v.1.15,2013-03-07 01:07:00,
2013-03-06 20:09:00,29.2,25.3,30.02,WNW,286,9.0,20.0,85,0.00,,,0.00,Wunderground v.1.15,2013-03-07 01:09:00,
2013-03-06 20:11:00,29.2,25.3,30.02,WNW,302,6.0,15.0,85,0.00,,,0.00,Wunderground v.1.15,2013-03-07 01:11:00,
2013-03-06 20:12:00,29.2,25.3,30.02,WNW,297,4.0,15.0,85,0.00,,,0.00,Wunderground v.1.15,2013-03-07 01:12:00,
2013-03-06 20:13:00,29.2,25.3,30.02,NNW,346,7.0,15.0,85,0.00,,,0.00,Wunderground v.1.15,2013-03-07 01:13:00,
2013-03-06 20:15:00,29.2,25.3,30.02,WNW,295,8.0,15.0,85,0.00,,,0.00,Wunderground v.1.15,2013-03-07 01:15:00,
2013-03-06 20:17:00,29.2,25.3,30.02,WNW,299,6.0,15.0,85,0.00,,,0.00,Wunderground v.1.15,2013-03-07 01:17:00,
2013-03-06 20:18:00,29.2,25.3,30.02,NW,323,9.0,15.0,85,0.00,,,0.00,Wunderground v.1.15,2013-03-07 01:18:00,
2013-03-06 20:21:00,29.2,25.3,30.02,NW,313,10.0,15.0,85,0.00,,,0.00,Wunderground v.1.15,2013-03-07 01:21:00,
2013-03-06 20:22:00,29.2,25.3,30.02,NNW,340,15.0,15.0,85,0.00,,,0.00,Wunderground v.1.15,2013-03-07 01:22:00,
2013-03-06 20:23:00,29.2,25.3,30.02,WNW,284,9.0,15.0,85,0.00,,,0.00,Wunderground v.1.15,2013-03-07 01:23:00,
2013-03-06 20:26:00,29.2,25.3,30.02,WNW,285,13.0,18.0,85,0.00,,,0.00,Wunderground v.1.15,2013-03-07 01:26:00,
2013-03-06 20:27:00,29.2,25.3,30.02,WNW,302,15.0,21.0,85,0.00,,,0.00,Wunderground v.1.15,2013-03-07 01:27:00,
2013-03-06 20:28:00,29.2,25.3,30.02,WNW,292,13.0,21.0,85,0.00,,,0.00,Wunderground v.1.15,2013-03-07 01:28:00,
2013-03-06 20:31:00,29.2,25.3,30.02,NW,310,8.0,13.0,85,0.00,,,0.00,Wunderground v.1.15,2013-03-07 01:31:00,
2013-03-06 20:32:00,29.2,25.3,30.02,NNW,331,10.0,16.0,85,0.00,,,0.00,Wunderground v.1.15,2013-03-07 01:32:00,
2013-03-06 20:33:00,29.2,25.3,30.02,NNW,342,9.0,16.0,85,0.00,,,0.00,Wunderground v.1.15,2013-03-07 01:33:00,
2013-03-06 20:34:00,29.2,25.3,30.02,WNW,296,13.0,16.0,85,0.00,,,0.00,Wunderground v.1.15,2013-03-07 01:34:00,
2013-03-06 20:36:00,29.2,25.3,30.03,NW,313,8.0,23.0,85,0.00,,,0.00,Wunderground v.1.15,2013-03-07 01:36:00,
2013-03-06 20:38:00,29.2,25.3,30.02,WNW,300,7.0,23.0,85,0.00,,,0.00,Wunderground v.1.15,2013-03-07 01:38:00,
2013-03-06 20:39:00,29.2,25.3,30.03,WNW,295,14.0,23.0,85,0.00,,,0.00,Wunderground v.1.15,2013-03-07 01:39:00,
2013-03-06 20:41:00,29.2,25.3,30.03,North,350,6.0,15.0,85,0.00,,,0.00,Wunderground v.1.15,2013-03-07 01:41:00,
2013-03-06 20:43:00,29.2,25.3,30.03,North,355,6.0,15.0,85,0.00,,,0.00,Wunderground v.1.15,2013-03-07 01:43:00,
2013-03-06 20:44:00,29.1,25.2,30.03,WNW,295,11.0,15.0,85,0.00,,,0.00,Wunderground v.1.15,2013-03-07 01:44:00,
2013-03-06 20:47:00,29.1,25.2,30.03,NW,306,11.0,19.0,85,0.00,,,0.00,Wunderground v.1.15,2013-03-07 01:47:00,
2013-03-06 20:48:00,29.2,25.3,30.03,WNW,299,20.0,20.0,85,0.00,,,0.00,Wunderground v.1.15,2013-03-07 01:48:00,
2013-03-06 20:49:00,29.1,25.2,30.03,WNW,297,9.0,21.0,85,0.00,,,0.00,Wunderground v.1.15,2013-03-07 01:49:00,
2013-03-06 20:53:00,29.2,25.3,30.03,WNW,286,11.0,16.0,85,0.00,,,0.00,Wunderground v.1.15,2013-03-07 01:53:00,
2013-03-06 20:54:00,29.2,25.3,30.03,NW,306,11.0,16.0,85,0.00,,,0.00,Wunderground v.1.15,2013-03-07 01:54:00,
2013-03-06 20:58:00,29.2,25.3,30.03,WNW,292,8.0,16.0,85,0.00,,,0.00,Wunderground v.1.15,2013-03-07 01:58:00,
2013-03-06 20:59:00,29.2,25.3,30.03,NW,306,12.0,16.0,85,0.00,,,0.00,Wunderground v.1.15,2013-03-07 01:59:00,
2013-03-06 21:03:00,29.2,25.3,30.03,NNW,336,17.0,18.0,85,0.00,,,0.00,Wunderground v.1.15,2013-03-07 02:03:00,
2013-03-06 21:04:00,29.2,25.3,30.03,WNW,300,7.0,18.0,85,0.00,,,0.00,Wunderground v.1.15,2013-03-07 02:04:00,
2013-03-06 21:09:00,29.2,25.3,30.03,WNW,284,14.0,18.0,85,0.00,,,0.00,Wunderground v.1.15,2013-03-07 02:09:00,
2013-03-06 21:10:00,29.2,25.3,30.04,WNW,297,9.0,11.0,85,0.00,,,0.00,Wunderground v.1.15,2013-03-07 02:10:00,
2013-03-06 21:14:00,29.2,25.3,30.04,West,277,7.0,12.0,85,0.00,,,0.00,Wunderground v.1.15,2013-03-07 02:14:00,
2013-03-06 21:15:00,29.2,25.3,30.04,WNW,288,7.0,13.0,85,0.00,,,0.00,Wunderground v.1.15,2013-03-07 02:15:00,
2013-03-06 21:19:00,29.2,25.3,30.04,WNW,296,9.0,16.0,85,0.00,,,0.00,Wunderground v.1.15,2013-03-07 02:19:00,
2013-03-06 21:20:00,29.2,25.3,30.04,NW,310,12.0,12.0,85,0.00,,,0.00,Wunderground v.1.15,2013-03-07 02:20:00,
2013-03-06 21:21:00,29.2,25.3,30.04,NW,324,10.0,13.0,85,0.00,,,0.00,Wunderground v.1.15,2013-03-07 02:21:00,
2013-03-06 21:25:00,29.2,25.3,30.04,West,280,8.0,15.0,85,0.00,,,0.00,Wunderground v.1.15,2013-03-07 02:25:00,
2013-03-06 21:26:00,29.2,25.3,30.04,West,279,14.0,15.0,85,0.00,,,0.00,Wunderground v.1.15,2013-03-07 02:26:00,
2013-03-06 21:30:00,29.3,25.4,30.04,NNW,331,9.0,9.0,85,0.00,,,0.00,Wunderground v.1.15,2013-03-07 02:30:00,
2013-03-06 21:31:00,29.3,25.4,30.04,NW,324,9.0,12.0,85,0.00,,,0.00,Wunderground v.1.15,2013-03-07 02:31:00,
2013-03-06 21:35:00,29.3,25.4,30.04,NNW,329,7.0,16.0,85,0.00,,,0.00,Wunderground v.1.15,2013-03-07 02:35:00,
2013-03-06 21:36:00,29.3,25.4,30.04,West,262,6.0,16.0,85,0.00,,,0.00,Wunderground v.1.15,2013-03-07 02:36:00,
2013-03-06 21:40:00,29.3,25.4,30.04,NNW,329,12.0,12.0,85,0.00,,,0.00,Wunderground v.1.15,2013-03-07 02:40:00,
2013-03-06 21:42:00,29.4,25.4,30.04,NW,308,8.0,13.0,85,0.00,,,0.00,Wunderground v.1.15,2013-03-07 02:42:00,
2013-03-06 21:45:00,29.3,25.4,30.05,NW,319,14.0,21.0,85,0.00,,,0.00,Wunderground v.1.15,2013-03-07 02:45:00,
2013-03-06 21:47:00,29.4,25.4,30.04,NW,326,5.0,21.0,85,0.00,,,0.00,Wunderground v.1.15,2013-03-07 02:47:00,
2013-03-06 21:50:00,29.4,25.2,30.05,NW,304,9.0,12.0,84,0.00,,,0.00,Wunderground v.1.15,2013-03-07 02:50:00,
2013-03-06 21:51:00,29.4,25.2,30.05,North,10,7.0,12.0,84,0.00,,,0.00,Wunderground v.1.15,2013-03-07 02:51:00,
2013-03-06 21:52:00,29.4,25.2,30.05,NW,315,13.0,15.0,84,0.00,,,0.00,Wunderground v.1.15,2013-03-07 02:52:00,
2013-03-06 21:53:00,29.4,25.2,30.05,North,355,5.0,15.0,84,0.00,,,0.00,Wunderground v.1.15,2013-03-07 02:53:00,
2013-03-06 21:56:00,29.4,25.2,30.05,NNW,348,10.0,18.0,84,0.00,,,0.00,Wunderground v.1.15,2013-03-07 02:56:00,
2013-03-06 21:57:00,29.5,25.3,30.05,NW,312,12.0,18.0,84,0.00,,,0.00,Wunderground v.1.15,2013-03-07 02:57:00,
2013-03-06 21:58:00,29.5,25.3,30.05,WNW,295,12.0,18.0,84,0.00,,,0.00,Wunderground v.1.15,2013-03-07 02:58:00,
2013-03-06 22:01:00,29.5,25.3,30.05,NW,307,8.0,12.0,84,0.00,,,0.00,Wunderground v.1.15,2013-03-07 03:01:00,
2013-03-06 22:03:00,29.5,25.3,30.05,WNW,300,14.0,20.0,84,0.00,,,0.00,Wunderground v.1.15,2013-03-07 03:03:00,
2013-03-06 22:06:00,29.5,25.3,30.05,NNW,335,18.0,20.0,84,0.00,,,0.00,Wunderground v.1.15,2013-03-07 03:06:00,
2013-03-06 22:07:00,29.5,25.3,30.05,NNW,329,11.0,20.0,84,0.00,,,0.00,Wunderground v.1.15,2013-03-07 03:07:00,
2013-03-06 22:08:00,29.5,25.3,30.06,North,360,12.0,20.0,84,0.00,,,0.00,Wunderground v.1.15,2013-03-07 03:08:00,
2013-03-06 22:12:00,29.4,25.2,30.06,WNW,296,12.0,22.0,84,0.00,,,0.00,Wunderground v.1.15,2013-03-07 03:12:00,
2013-03-06 22:13:00,29.5,25.3,30.06,NW,315,10.0,22.0,84,0.00,,,0.00,Wunderground v.1.15,2013-03-07 03:13:00,
2013-03-06 22:14:00,29.5,25.3,30.06,NNW,338,8.0,22.0,84,0.00,,,0.00,Wunderground v.1.15,2013-03-07 03:14:00,
2013-03-06 22:17:00,29.5,25.3,30.06,NW,319,5.0,22.0,84,0.00,,,0.00,Wunderground v.1.15,2013-03-07 03:17:00,
2013-03-06 22:19:00,29.5,25.3,30.06,West,278,7.0,22.0,84,0.00,,,0.00,Wunderground v.1.15,2013-03-07 03:19:00,
2013-03-06 22:23:00,29.4,25.4,30.05,WNW,299,13.0,15.0,85,0.00,,,0.00,Wunderground v.1.15,2013-03-07 03:23:00,
2013-03-06 22:24:00,29.4,25.4,30.06,WNW,301,10.0,17.0,85,0.00,,,0.00,Wunderground v.1.15,2013-03-07 03:24:00,
2013-03-06 22:28:00,29.4,25.2,30.06,NW,326,9.0,20.0,84,0.00,,,0.00,Wunderground v.1.15,2013-03-07 03:28:00,
2013-03-06 22:29:00,29.4,25.2,30.06,NW,315,12.0,20.0,84,0.00,,,0.00,Wunderground v.1.15,2013-03-07 03:29:00,
2013-03-06 22:33:00,29.5,25.3,30.06,NW,309,7.0,18.0,84,0.00,,,0.00,Wunderground v.1.15,2013-03-07 03:33:00,
2013-03-06 22:34:00,29.4,25.2,30.06,NW,321,7.0,18.0,84,0.00,,,0.00,Wunderground v.1.15,2013-03-07 03:34:00,
2013-03-06 22:38:00,29.4,25.4,30.05,NW,309,11.0,18.0,85,0.00,,,0.00,Wunderground v.1.15,2013-03-07 03:38:00,
2013-03-06 22:39:00,29.4,25.4,30.06,NNW,346,6.0,18.0,85,0.00,,,0.00,Wunderground v.1.15,2013-03-07 03:39:00,
2013-03-06 22:40:00,29.4,25.2,30.06,NNW,336,14.0,14.0,84,0.00,,,0.00,Wunderground v.1.15,2013-03-07 03:40:00,
2013-03-06 22:43:00,29.4,25.4,30.05,WNW,294,8.0,16.0,85,0.00,,,0.00,Wunderground v.1.15,2013-03-07 03:43:00,
2013-03-06 22:44:00,29.4,25.4,30.06,NW,318,15.0,17.0,85,0.00,,,0.00,Wunderground v.1.15,2013-03-07 03:44:00,
2013-03-06 22:45:00,29.4,25.4,30.06,NNW,338,6.0,19.0,85,0.00,,,0.00,Wunderground v.1.15,2013-03-07 03:45:00,
2013-03-06 22:48:00,29.4,25.4,30.05,NW,309,7.0,19.0,85,0.00,,,0.00,Wunderground v.1.15,2013-03-07 03:48:00,
2013-03-06 22:50:00,29.4,25.4,30.06,WNW,294,8.0,10.0,85,0.00,,,0.00,Wunderground v.1.15,2013-03-07 03:50:00,
2013-03-06 22:53:00,29.4,25.4,30.05,NW,315,11.0,22.0,85,0.00,,,0.00,Wunderground v.1.15,2013-03-07 03:53:00,
2013-03-06 22:55:00,29.4,25.4,30.06,NW,312,16.0,22.0,85,0.00,,,0.00,Wunderground v.1.15,2013-03-07 03:55:00,
2013-03-06 22:59:00,29.4,25.4,30.06,NNW,336,7.0,22.0,85,0.00,,,0.00,Wunderground v.1.15,2013-03-07 03:59:00,
2013-03-06 23:00:00,29.4,25.4,30.06,NW,307,10.0,10.0,85,0.00,,,0.00,Wunderground v.1.15,2013-03-07 04:00:00,
2013-03-06 23:01:00,29.4,25.4,30.05,NW,312,11.0,18.0,85,0.00,,,0.00,Wunderground v.1.15,2013-03-07 04:01:00,
2013-03-06 23:04:00,29.4,25.4,30.06,NW,305,7.0,18.0,85,0.00,,,0.00,Wunderground v.1.15,2013-03-07 04:04:00,
2013-03-06 23:05:00,29.4,25.4,30.06,WNW,302,8.0,18.0,85,0.00,,,0.00,Wunderground v.1.15,2013-03-07 04:05:00,
2013-03-06 23:06:00,29.4,25.4,30.05,NNW,337,5.0,18.0,85,0.00,,,0.00,Wunderground v.1.15,2013-03-07 04:06:00,
2013-03-06 23:10:00,29.4,25.4,30.05,NW,324,14.0,14.0,85,0.00,,,0.00,Wunderground v.1.15,2013-03-07 04:10:00,
2013-03-06 23:11:00,29.4,25.4,30.05,NW,310,12.0,16.0,85,0.00,,,0.00,Wunderground v.1.15,2013-03-07 04:11:00,
2013-03-06 23:15:00,29.4,25.4,30.05,WNW,302,7.0,23.0,85,0.00,,,0.00,Wunderground v.1.15,2013-03-07 04:15:00,
2013-03-06 23:16:00,29.4,25.4,30.05,WNW,284,10.0,23.0,85,0.00,,,0.00,Wunderground v.1.15,2013-03-07 04:16:00,
2013-03-06 23:20:00,29.3,25.4,30.05,NW,304,9.0,10.0,85,0.00,,,0.00,Wunderground v.1.15,2013-03-07 04:20:00,
2013-03-06 23:21:00,29.3,25.4,30.06,NW,311,11.0,11.0,85,0.00,,,0.00,Wunderground v.1.15,2013-03-07 04:21:00,
2013-03-06 23:25:00,29.3,25.4,30.06,NW,306,5.0,19.0,85,0.00,,,0.00,Wunderground v.1.15,2013-03-07 04:25:00,
2013-03-06 23:26:00,29.3,25.4,30.06,NW,306,4.0,19.0,85,0.00,,,0.00,Wunderground v.1.15,2013-03-07 04:26:00,
2013-03-06 23:27:00,29.3,25.4,30.06,WNW,302,11.0,19.0,85,0.00,,,0.00,Wunderground v.1.15,2013-03-07 04:27:00,
2013-03-06 23:30:00,29.3,25.1,30.05,WNW,300,4.0,12.0,84,0.00,,,0.00,Wunderground v.1.15,2013-03-07 04:30:00,
2013-03-06 23:31:00,29.3,25.4,30.05,NNW,336,7.0,17.0,85,0.00,,,0.00,Wunderground v.1.15,2013-03-07 04:31:00,
2013-03-06 23:32:00,29.4,25.4,30.05,WNW,302,7.0,17.0,85,0.00,,,0.00,Wunderground v.1.15,2013-03-07 04:32:00,
2013-03-06 23:35:00,29.3,25.4,30.06,WNW,284,6.0,17.0,85,0.00,,,0.00,Wunderground v.1.15,2013-03-07 04:35:00,
2013-03-06 23:37:00,29.3,25.4,30.06,NW,313,8.0,17.0,85,0.00,,,0.00,Wunderground v.1.15,2013-03-07 04:37:00,
2013-03-06 23:41:00,29.3,25.4,30.06,West,266,3.0,8.0,85,0.00,,,0.00,Wunderground v.1.15,2013-03-07 04:41:00,
2013-03-06 23:42:00,29.3,25.4,30.06,NW,309,11.0,14.0,85,0.00,,,0.00,Wunderground v.1.15,2013-03-07 04:42:00,
2013-03-06 23:46:00,29.3,25.4,30.06,WNW,284,9.0,14.0,85,0.00,,,0.00,Wunderground v.1.15,2013-03-07 04:46:00,
2013-03-06 23:47:00,29.3,25.4,30.05,WNW,300,12.0,17.0,85,0.00,,,0.00,Wunderground v.1.15,2013-03-07 04:47:00,
2013-03-06 23:48:00,29.3,25.4,30.05,NNW,331,5.0,17.0,85,0.00,,,0.00,Wunderground v.1.15,2013-03-07 04:48:00,
2013-03-06 23:51:00,29.3,25.4,30.06,WNW,302,15.0,17.0,85,0.00,,,0.00,Wunderground v.1.15,2013-03-07 04:51:00,
2013-03-06 23:52:00,29.3,25.4,30.06,WNW,299,6.0,19.0,85,0.00,,,0.00,Wunderground v.1.15,2013-03-07 04:52:00,
2013-03-06 23:54:00,29.3,25.4,30.06,NW,312,6.0,19.0,85,0.00,,,0.00,Wunderground v.1.15,2013-03-07 04:54:00,
2013-03-06 23:56:00,29.3,25.4,30.06,WNW,287,10.0,19.0,85,0.00,,,0.00,Wunderground v.1.15,2013-03-07 04:56:00,
2013-03-06 23:57:00,29.3,25.1,30.05,NW,313,10.0,19.0,84,0.00,,,0.00,Wunderground v.1.15,2013-03-07 04:57:00,
2013-03-06 23:59:00,29.3,25.4,30.05,NW,323,10.0,19.0,85,0.00,,,0.00,Wunderground v.1.15,2013-03-07 04:59:00,